<?xml version="1.0" encoding="UTF-8" standalone="no" ?>
<gpx xmlns="http://www.topografix.com/GPX/1/1" xmlns:xsi="http://www.w3.org/2001/XMLSchema-instance" xsi:schemaLocation="http://www.topografix.com/GPX/1/1 http://www.topografix.com/GPX/1/1/gpx.xsd" version="1.1" creator="VisuGPX - https://www.visugpx.com">
  <metadata>
    <name>GR®3b Les Œufs de Bouc -col de la cadière -Pont Sarrazin</name>
    <desc><![CDATA[Départ Parking B480- B481- puis à droite vers B488 – B487 - B486 (Les OEUFS de BOUC) – B485, poursuivre la piste vers le col de LA CADIERE , prendre le GR51 vers le col du TRAYAS B501 –Prendre la piste à gauche en descendant vers PONT SARRAZIN B483 – B482 (chapelle) puis retour au parking B480 – B481. IBP49]]></desc>
  </metadata>
  <wpt lat="43.51971" lon="6.90541">
    <ele>60</ele>
    <name><![CDATA[Balise 488 - Piste DFCI à gauche]]></name>
  </wpt>
  <wpt lat="43.51672" lon="6.89857">
    <ele>174</ele>
    <name><![CDATA[Balise 487]]></name>
  </wpt>
  <wpt lat="43.50794" lon="6.89292">
    <ele>265</ele>
    <name><![CDATA[Tout droit]]></name>
  </wpt>
  <trk>
    <name><![CDATA[GR®3b Les Œufs de Bouc -col de la cadière -Pont Sarrazin]]></name>
    <trkseg>
      <trkpt lat="43.52491" lon="6.91198">
        <ele>14</ele>
        <time>2024-10-29T09:39:30+01:00</time>
      </trkpt>
      <trkpt lat="43.52472" lon="6.91185">
        <ele>12</ele>
        <time>2024-10-29T09:39:33+01:00</time>
      </trkpt>
      <trkpt lat="43.52465" lon="6.91172">
        <ele>12</ele>
        <time>2024-10-29T09:39:51+01:00</time>
      </trkpt>
      <trkpt lat="43.52462" lon="6.9116">
        <ele>12</ele>
        <time>2024-10-29T09:40:06+01:00</time>
      </trkpt>
      <trkpt lat="43.52459" lon="6.91148">
        <ele>13</ele>
        <time>2024-10-29T09:40:21+01:00</time>
      </trkpt>
      <trkpt lat="43.52456" lon="6.91136">
        <ele>13</ele>
        <time>2024-10-29T09:40:33+01:00</time>
      </trkpt>
      <trkpt lat="43.52453" lon="6.91124">
        <ele>14</ele>
        <time>2024-10-29T09:40:45+01:00</time>
      </trkpt>
      <trkpt lat="43.52451" lon="6.91111">
        <ele>14</ele>
        <time>2024-10-29T09:41:00+01:00</time>
      </trkpt>
      <trkpt lat="43.52446" lon="6.911">
        <ele>15</ele>
        <time>2024-10-29T09:41:12+01:00</time>
      </trkpt>
      <trkpt lat="43.52438" lon="6.91089">
        <ele>15</ele>
        <time>2024-10-29T09:41:24+01:00</time>
      </trkpt>
      <trkpt lat="43.52432" lon="6.9108">
        <ele>15</ele>
        <time>2024-10-29T09:41:33+01:00</time>
      </trkpt>
      <trkpt lat="43.52425" lon="6.91069">
        <ele>15</ele>
        <time>2024-10-29T09:41:42+01:00</time>
      </trkpt>
      <trkpt lat="43.52421" lon="6.91059">
        <ele>14</ele>
        <time>2024-10-29T09:41:54+01:00</time>
      </trkpt>
      <trkpt lat="43.52413" lon="6.91051">
        <ele>14</ele>
        <time>2024-10-29T09:42:06+01:00</time>
      </trkpt>
      <trkpt lat="43.52403" lon="6.91046">
        <ele>13</ele>
        <time>2024-10-29T09:42:15+01:00</time>
      </trkpt>
      <trkpt lat="43.52395" lon="6.91043">
        <ele>12</ele>
        <time>2024-10-29T09:42:24+01:00</time>
      </trkpt>
      <trkpt lat="43.52387" lon="6.91044">
        <ele>11</ele>
        <time>2024-10-29T09:42:33+01:00</time>
      </trkpt>
      <trkpt lat="43.52378" lon="6.91039">
        <ele>11</ele>
        <time>2024-10-29T09:42:45+01:00</time>
      </trkpt>
      <trkpt lat="43.5237" lon="6.9103">
        <ele>11</ele>
        <time>2024-10-29T09:42:54+01:00</time>
      </trkpt>
      <trkpt lat="43.52367" lon="6.91017">
        <ele>12</ele>
        <time>2024-10-29T09:43:06+01:00</time>
      </trkpt>
      <trkpt lat="43.52363" lon="6.91005">
        <ele>13</ele>
        <time>2024-10-29T09:43:18+01:00</time>
      </trkpt>
      <trkpt lat="43.52359" lon="6.90994">
        <ele>14</ele>
        <time>2024-10-29T09:43:33+01:00</time>
      </trkpt>
      <trkpt lat="43.52353" lon="6.90984">
        <ele>14</ele>
        <time>2024-10-29T09:43:45+01:00</time>
      </trkpt>
      <trkpt lat="43.52347" lon="6.90973">
        <ele>15</ele>
        <time>2024-10-29T09:43:57+01:00</time>
      </trkpt>
      <trkpt lat="43.52341" lon="6.90962">
        <ele>16</ele>
        <time>2024-10-29T09:44:09+01:00</time>
      </trkpt>
      <trkpt lat="43.52336" lon="6.90952">
        <ele>17</ele>
        <time>2024-10-29T09:44:21+01:00</time>
      </trkpt>
      <trkpt lat="43.5233" lon="6.90941">
        <ele>18</ele>
        <time>2024-10-29T09:44:36+01:00</time>
      </trkpt>
      <trkpt lat="43.52325" lon="6.90931">
        <ele>19</ele>
        <time>2024-10-29T09:44:51+01:00</time>
      </trkpt>
      <trkpt lat="43.52318" lon="6.90924">
        <ele>20</ele>
        <time>2024-10-29T09:45:03+01:00</time>
      </trkpt>
      <trkpt lat="43.5231" lon="6.90915">
        <ele>21</ele>
        <time>2024-10-29T09:45:18+01:00</time>
      </trkpt>
      <trkpt lat="43.52302" lon="6.90909">
        <ele>22</ele>
        <time>2024-10-29T09:45:33+01:00</time>
      </trkpt>
      <trkpt lat="43.52293" lon="6.90904">
        <ele>24</ele>
        <time>2024-10-29T09:45:48+01:00</time>
      </trkpt>
      <trkpt lat="43.52284" lon="6.90898">
        <ele>26</ele>
        <time>2024-10-29T09:46:03+01:00</time>
      </trkpt>
      <trkpt lat="43.52275" lon="6.90894">
        <ele>27</ele>
        <time>2024-10-29T09:46:15+01:00</time>
      </trkpt>
      <trkpt lat="43.52266" lon="6.90892">
        <ele>28</ele>
        <time>2024-10-29T09:46:30+01:00</time>
      </trkpt>
      <trkpt lat="43.52258" lon="6.90889">
        <ele>30</ele>
        <time>2024-10-29T09:46:45+01:00</time>
      </trkpt>
      <trkpt lat="43.52249" lon="6.90885">
        <ele>30</ele>
        <time>2024-10-29T09:46:57+01:00</time>
      </trkpt>
      <trkpt lat="43.52241" lon="6.90883">
        <ele>30</ele>
        <time>2024-10-29T09:47:12+01:00</time>
      </trkpt>
      <trkpt lat="43.52232" lon="6.90878">
        <ele>31</ele>
        <time>2024-10-29T09:47:27+01:00</time>
      </trkpt>
      <trkpt lat="43.52226" lon="6.90869">
        <ele>32</ele>
        <time>2024-10-29T09:47:39+01:00</time>
      </trkpt>
      <trkpt lat="43.52218" lon="6.90868">
        <ele>34</ele>
        <time>2024-10-29T09:50:21+01:00</time>
      </trkpt>
      <trkpt lat="43.5221" lon="6.90864">
        <ele>36</ele>
        <time>2024-10-29T09:50:34+01:00</time>
      </trkpt>
      <trkpt lat="43.52203" lon="6.90856">
        <ele>38</ele>
        <time>2024-10-29T09:50:45+01:00</time>
      </trkpt>
      <trkpt lat="43.52198" lon="6.90847">
        <ele>40</ele>
        <time>2024-10-29T09:50:57+01:00</time>
      </trkpt>
      <trkpt lat="43.52191" lon="6.90837">
        <ele>42</ele>
        <time>2024-10-29T09:51:12+01:00</time>
      </trkpt>
      <trkpt lat="43.52184" lon="6.90829">
        <ele>43</ele>
        <time>2024-10-29T09:51:24+01:00</time>
      </trkpt>
      <trkpt lat="43.52177" lon="6.9082">
        <ele>45</ele>
        <time>2024-10-29T09:51:39+01:00</time>
      </trkpt>
      <trkpt lat="43.52172" lon="6.9081">
        <ele>46</ele>
        <time>2024-10-29T09:51:51+01:00</time>
      </trkpt>
      <trkpt lat="43.52165" lon="6.90802">
        <ele>47</ele>
        <time>2024-10-29T09:52:03+01:00</time>
      </trkpt>
      <trkpt lat="43.52158" lon="6.90795">
        <ele>48</ele>
        <time>2024-10-29T09:52:15+01:00</time>
      </trkpt>
      <trkpt lat="43.52151" lon="6.90786">
        <ele>49</ele>
        <time>2024-10-29T09:52:27+01:00</time>
      </trkpt>
      <trkpt lat="43.52144" lon="6.90779">
        <ele>51</ele>
        <time>2024-10-29T09:52:42+01:00</time>
      </trkpt>
      <trkpt lat="43.52135" lon="6.90774">
        <ele>52</ele>
        <time>2024-10-29T09:52:57+01:00</time>
      </trkpt>
      <trkpt lat="43.52127" lon="6.90768">
        <ele>53</ele>
        <time>2024-10-29T09:53:09+01:00</time>
      </trkpt>
      <trkpt lat="43.52117" lon="6.90764">
        <ele>54</ele>
        <time>2024-10-29T09:53:21+01:00</time>
      </trkpt>
      <trkpt lat="43.52109" lon="6.9076">
        <ele>55</ele>
        <time>2024-10-29T09:53:33+01:00</time>
      </trkpt>
      <trkpt lat="43.521" lon="6.90753">
        <ele>56</ele>
        <time>2024-10-29T09:53:45+01:00</time>
      </trkpt>
      <trkpt lat="43.52091" lon="6.90749">
        <ele>58</ele>
        <time>2024-10-29T09:54:01+01:00</time>
      </trkpt>
      <trkpt lat="43.52083" lon="6.90743">
        <ele>58</ele>
        <time>2024-10-29T09:54:12+01:00</time>
      </trkpt>
      <trkpt lat="43.52075" lon="6.90737">
        <ele>59</ele>
        <time>2024-10-29T09:54:21+01:00</time>
      </trkpt>
      <trkpt lat="43.52068" lon="6.9073">
        <ele>58</ele>
        <time>2024-10-29T09:54:33+01:00</time>
      </trkpt>
      <trkpt lat="43.5206" lon="6.90724">
        <ele>59</ele>
        <time>2024-10-29T09:54:45+01:00</time>
      </trkpt>
      <trkpt lat="43.52051" lon="6.90719">
        <ele>59</ele>
        <time>2024-10-29T09:54:57+01:00</time>
      </trkpt>
      <trkpt lat="43.52043" lon="6.90713">
        <ele>60</ele>
        <time>2024-10-29T09:55:09+01:00</time>
      </trkpt>
      <trkpt lat="43.52035" lon="6.90706">
        <ele>61</ele>
        <time>2024-10-29T09:55:21+01:00</time>
      </trkpt>
      <trkpt lat="43.52027" lon="6.907">
        <ele>62</ele>
        <time>2024-10-29T09:55:33+01:00</time>
      </trkpt>
      <trkpt lat="43.52018" lon="6.90694">
        <ele>62</ele>
        <time>2024-10-29T09:55:48+01:00</time>
      </trkpt>
      <trkpt lat="43.52008" lon="6.90687">
        <ele>61</ele>
        <time>2024-10-29T09:56:01+01:00</time>
      </trkpt>
      <trkpt lat="43.52" lon="6.90681">
        <ele>61</ele>
        <time>2024-10-29T09:56:16+01:00</time>
      </trkpt>
      <trkpt lat="43.51991" lon="6.90675">
        <ele>61</ele>
        <time>2024-10-29T09:56:43+01:00</time>
      </trkpt>
      <trkpt lat="43.51983" lon="6.90669">
        <ele>60</ele>
        <time>2024-10-29T09:56:52+01:00</time>
      </trkpt>
      <trkpt lat="43.51977" lon="6.9066">
        <ele>61</ele>
        <time>2024-10-29T09:57:01+01:00</time>
      </trkpt>
      <trkpt lat="43.5197" lon="6.9065">
        <ele>62</ele>
        <time>2024-10-29T09:57:13+01:00</time>
      </trkpt>
      <trkpt lat="43.51967" lon="6.90639">
        <ele>62</ele>
        <time>2024-10-29T09:57:22+01:00</time>
      </trkpt>
      <trkpt lat="43.51963" lon="6.90625">
        <ele>63</ele>
        <time>2024-10-29T09:57:34+01:00</time>
      </trkpt>
      <trkpt lat="43.51962" lon="6.90611">
        <ele>63</ele>
        <time>2024-10-29T09:57:43+01:00</time>
      </trkpt>
      <trkpt lat="43.51961" lon="6.90598">
        <ele>63</ele>
        <time>2024-10-29T09:57:52+01:00</time>
      </trkpt>
      <trkpt lat="43.51961" lon="6.90584">
        <ele>62</ele>
        <time>2024-10-29T09:58:04+01:00</time>
      </trkpt>
      <trkpt lat="43.51963" lon="6.90571">
        <ele>62</ele>
        <time>2024-10-29T09:58:16+01:00</time>
      </trkpt>
      <trkpt lat="43.51965" lon="6.90558">
        <ele>61</ele>
        <time>2024-10-29T09:58:28+01:00</time>
      </trkpt>
      <trkpt lat="43.51967" lon="6.90546">
        <ele>61</ele>
        <time>2024-10-29T09:58:43+01:00</time>
      </trkpt>
      <trkpt lat="43.51971" lon="6.90541">
        <ele>60</ele>
        <time>2024-10-29T10:00:03+01:00</time>
      </trkpt>
      <trkpt lat="43.51968" lon="6.90532">
        <ele>60</ele>
        <time>2024-10-29T10:03:46+01:00</time>
      </trkpt>
      <trkpt lat="43.51967" lon="6.9052">
        <ele>61</ele>
        <time>2024-10-29T10:04:07+01:00</time>
      </trkpt>
      <trkpt lat="43.51963" lon="6.90512">
        <ele>61</ele>
        <time>2024-10-29T10:07:19+01:00</time>
      </trkpt>
      <trkpt lat="43.51969" lon="6.90505">
        <ele>60</ele>
        <time>2024-10-29T10:08:07+01:00</time>
      </trkpt>
      <trkpt lat="43.51973" lon="6.90494">
        <ele>60</ele>
        <time>2024-10-29T10:08:28+01:00</time>
      </trkpt>
      <trkpt lat="43.51973" lon="6.90482">
        <ele>60</ele>
        <time>2024-10-29T10:08:49+01:00</time>
      </trkpt>
      <trkpt lat="43.51971" lon="6.90469">
        <ele>60</ele>
        <time>2024-10-29T10:09:10+01:00</time>
      </trkpt>
      <trkpt lat="43.5197" lon="6.90456">
        <ele>60</ele>
        <time>2024-10-29T10:09:26+01:00</time>
      </trkpt>
      <trkpt lat="43.51969" lon="6.90442">
        <ele>60</ele>
        <time>2024-10-29T10:09:44+01:00</time>
      </trkpt>
      <trkpt lat="43.51964" lon="6.9043">
        <ele>61</ele>
        <time>2024-10-29T10:10:14+01:00</time>
      </trkpt>
      <trkpt lat="43.51957" lon="6.90422">
        <ele>62</ele>
        <time>2024-10-29T10:10:26+01:00</time>
      </trkpt>
      <trkpt lat="43.51948" lon="6.90418">
        <ele>63</ele>
        <time>2024-10-29T10:10:41+01:00</time>
      </trkpt>
      <trkpt lat="43.51939" lon="6.90417">
        <ele>66</ele>
        <time>2024-10-29T10:11:02+01:00</time>
      </trkpt>
      <trkpt lat="43.5193" lon="6.90414">
        <ele>68</ele>
        <time>2024-10-29T10:11:41+01:00</time>
      </trkpt>
      <trkpt lat="43.5192" lon="6.90412">
        <ele>72</ele>
        <time>2024-10-29T10:12:09+01:00</time>
      </trkpt>
      <trkpt lat="43.51913" lon="6.90407">
        <ele>74</ele>
        <time>2024-10-29T10:12:46+01:00</time>
      </trkpt>
      <trkpt lat="43.51905" lon="6.90404">
        <ele>77</ele>
        <time>2024-10-29T10:13:43+01:00</time>
      </trkpt>
      <trkpt lat="43.51897" lon="6.90399">
        <ele>79</ele>
        <time>2024-10-29T10:14:25+01:00</time>
      </trkpt>
      <trkpt lat="43.51889" lon="6.90394">
        <ele>83</ele>
        <time>2024-10-29T10:17:10+01:00</time>
      </trkpt>
      <trkpt lat="43.51881" lon="6.90395">
        <ele>85</ele>
        <time>2024-10-29T10:18:01+01:00</time>
      </trkpt>
      <trkpt lat="43.51872" lon="6.90393">
        <ele>87</ele>
        <time>2024-10-29T10:19:41+01:00</time>
      </trkpt>
      <trkpt lat="43.51863" lon="6.90389">
        <ele>90</ele>
        <time>2024-10-29T10:20:49+01:00</time>
      </trkpt>
      <trkpt lat="43.51854" lon="6.90391">
        <ele>93</ele>
        <time>2024-10-29T10:21:13+01:00</time>
      </trkpt>
      <trkpt lat="43.51846" lon="6.90393">
        <ele>95</ele>
        <time>2024-10-29T10:21:40+01:00</time>
      </trkpt>
      <trkpt lat="43.51837" lon="6.90389">
        <ele>98</ele>
        <time>2024-10-29T10:22:31+01:00</time>
      </trkpt>
      <trkpt lat="43.5183" lon="6.90382">
        <ele>99</ele>
        <time>2024-10-29T10:23:19+01:00</time>
      </trkpt>
      <trkpt lat="43.51821" lon="6.90381">
        <ele>100</ele>
        <time>2024-10-29T10:23:55+01:00</time>
      </trkpt>
      <trkpt lat="43.51812" lon="6.9038">
        <ele>101</ele>
        <time>2024-10-29T10:24:10+01:00</time>
      </trkpt>
      <trkpt lat="43.51803" lon="6.90375">
        <ele>103</ele>
        <time>2024-10-29T10:24:28+01:00</time>
      </trkpt>
      <trkpt lat="43.51795" lon="6.90372">
        <ele>105</ele>
        <time>2024-10-29T10:24:46+01:00</time>
      </trkpt>
      <trkpt lat="43.51787" lon="6.90368">
        <ele>107</ele>
        <time>2024-10-29T10:25:10+01:00</time>
      </trkpt>
      <trkpt lat="43.51778" lon="6.90365">
        <ele>110</ele>
        <time>2024-10-29T10:25:25+01:00</time>
      </trkpt>
      <trkpt lat="43.51769" lon="6.90363">
        <ele>111</ele>
        <time>2024-10-29T10:26:40+01:00</time>
      </trkpt>
      <trkpt lat="43.5176" lon="6.90362">
        <ele>113</ele>
        <time>2024-10-29T10:26:58+01:00</time>
      </trkpt>
      <trkpt lat="43.51752" lon="6.90356">
        <ele>115</ele>
        <time>2024-10-29T10:27:34+01:00</time>
      </trkpt>
      <trkpt lat="43.51742" lon="6.90354">
        <ele>117</ele>
        <time>2024-10-29T10:27:55+01:00</time>
      </trkpt>
      <trkpt lat="43.51734" lon="6.9035">
        <ele>118</ele>
        <time>2024-10-29T10:28:37+01:00</time>
      </trkpt>
      <trkpt lat="43.51725" lon="6.90347">
        <ele>120</ele>
        <time>2024-10-29T10:28:58+01:00</time>
      </trkpt>
      <trkpt lat="43.51715" lon="6.90343">
        <ele>123</ele>
        <time>2024-10-29T10:29:28+01:00</time>
      </trkpt>
      <trkpt lat="43.51707" lon="6.90337">
        <ele>125</ele>
        <time>2024-10-29T10:30:10+01:00</time>
      </trkpt>
      <trkpt lat="43.517" lon="6.9033">
        <ele>128</ele>
        <time>2024-10-29T10:30:40+01:00</time>
      </trkpt>
      <trkpt lat="43.51692" lon="6.90329">
        <ele>130</ele>
        <time>2024-10-29T10:31:04+01:00</time>
      </trkpt>
      <trkpt lat="43.51683" lon="6.90324">
        <ele>131</ele>
        <time>2024-10-29T10:31:37+01:00</time>
      </trkpt>
      <trkpt lat="43.51674" lon="6.90316">
        <ele>133</ele>
        <time>2024-10-29T10:32:13+01:00</time>
      </trkpt>
      <trkpt lat="43.51666" lon="6.9031">
        <ele>135</ele>
        <time>2024-10-29T10:32:31+01:00</time>
      </trkpt>
      <trkpt lat="43.51657" lon="6.90303">
        <ele>135</ele>
        <time>2024-10-29T10:32:52+01:00</time>
      </trkpt>
      <trkpt lat="43.51652" lon="6.90291">
        <ele>137</ele>
        <time>2024-10-29T10:36:46+01:00</time>
      </trkpt>
      <trkpt lat="43.5165" lon="6.90279">
        <ele>140</ele>
        <time>2024-10-29T10:37:13+01:00</time>
      </trkpt>
      <trkpt lat="43.51648" lon="6.90267">
        <ele>142</ele>
        <time>2024-10-29T10:37:37+01:00</time>
      </trkpt>
      <trkpt lat="43.51642" lon="6.90258">
        <ele>145</ele>
        <time>2024-10-29T10:37:59+01:00</time>
      </trkpt>
      <trkpt lat="43.51639" lon="6.90247">
        <ele>148</ele>
        <time>2024-10-29T10:38:22+01:00</time>
      </trkpt>
      <trkpt lat="43.51637" lon="6.90236">
        <ele>148</ele>
        <time>2024-10-29T10:38:52+01:00</time>
      </trkpt>
      <trkpt lat="43.51633" lon="6.90224">
        <ele>149</ele>
        <time>2024-10-29T10:39:17+01:00</time>
      </trkpt>
      <trkpt lat="43.5163" lon="6.90212">
        <ele>149</ele>
        <time>2024-10-29T10:39:32+01:00</time>
      </trkpt>
      <trkpt lat="43.51629" lon="6.90198">
        <ele>149</ele>
        <time>2024-10-29T10:39:48+01:00</time>
      </trkpt>
      <trkpt lat="43.51628" lon="6.90185">
        <ele>149</ele>
        <time>2024-10-29T10:40:06+01:00</time>
      </trkpt>
      <trkpt lat="43.51627" lon="6.90173">
        <ele>149</ele>
        <time>2024-10-29T10:40:24+01:00</time>
      </trkpt>
      <trkpt lat="43.51623" lon="6.90166">
        <ele>149</ele>
        <time>2024-10-29T10:40:54+01:00</time>
      </trkpt>
      <trkpt lat="43.51629" lon="6.90166">
        <ele>150</ele>
        <time>2024-10-29T10:49:12+01:00</time>
      </trkpt>
      <trkpt lat="43.51633" lon="6.90156">
        <ele>149</ele>
        <time>2024-10-29T10:49:51+01:00</time>
      </trkpt>
      <trkpt lat="43.51636" lon="6.90145">
        <ele>148</ele>
        <time>2024-10-29T10:50:09+01:00</time>
      </trkpt>
      <trkpt lat="43.51641" lon="6.90132">
        <ele>146</ele>
        <time>2024-10-29T10:50:30+01:00</time>
      </trkpt>
      <trkpt lat="43.51644" lon="6.9012">
        <ele>144</ele>
        <time>2024-10-29T10:50:42+01:00</time>
      </trkpt>
      <trkpt lat="43.51649" lon="6.90108">
        <ele>142</ele>
        <time>2024-10-29T10:51:06+01:00</time>
      </trkpt>
      <trkpt lat="43.51652" lon="6.90097">
        <ele>141</ele>
        <time>2024-10-29T10:51:24+01:00</time>
      </trkpt>
      <trkpt lat="43.51655" lon="6.90085">
        <ele>140</ele>
        <time>2024-10-29T10:51:36+01:00</time>
      </trkpt>
      <trkpt lat="43.5166" lon="6.90071">
        <ele>140</ele>
        <time>2024-10-29T10:51:48+01:00</time>
      </trkpt>
      <trkpt lat="43.51664" lon="6.90059">
        <ele>140</ele>
        <time>2024-10-29T10:52:00+01:00</time>
      </trkpt>
      <trkpt lat="43.51669" lon="6.90047">
        <ele>141</ele>
        <time>2024-10-29T10:52:13+01:00</time>
      </trkpt>
      <trkpt lat="43.51671" lon="6.90035">
        <ele>140</ele>
        <time>2024-10-29T10:52:24+01:00</time>
      </trkpt>
      <trkpt lat="43.51672" lon="6.90021">
        <ele>141</ele>
        <time>2024-10-29T10:52:36+01:00</time>
      </trkpt>
      <trkpt lat="43.51674" lon="6.90008">
        <ele>141</ele>
        <time>2024-10-29T10:52:48+01:00</time>
      </trkpt>
      <trkpt lat="43.51677" lon="6.89996">
        <ele>143</ele>
        <time>2024-10-29T10:53:00+01:00</time>
      </trkpt>
      <trkpt lat="43.51679" lon="6.89984">
        <ele>145</ele>
        <time>2024-10-29T10:53:18+01:00</time>
      </trkpt>
      <trkpt lat="43.51679" lon="6.89972">
        <ele>146</ele>
        <time>2024-10-29T10:53:36+01:00</time>
      </trkpt>
      <trkpt lat="43.5168" lon="6.89959">
        <ele>149</ele>
        <time>2024-10-29T10:53:57+01:00</time>
      </trkpt>
      <trkpt lat="43.51683" lon="6.89946">
        <ele>152</ele>
        <time>2024-10-29T10:54:27+01:00</time>
      </trkpt>
      <trkpt lat="43.51684" lon="6.89934">
        <ele>155</ele>
        <time>2024-10-29T10:55:21+01:00</time>
      </trkpt>
      <trkpt lat="43.51685" lon="6.89922">
        <ele>158</ele>
        <time>2024-10-29T10:56:18+01:00</time>
      </trkpt>
      <trkpt lat="43.51688" lon="6.89911">
        <ele>161</ele>
        <time>2024-10-29T10:56:36+01:00</time>
      </trkpt>
      <trkpt lat="43.51686" lon="6.899">
        <ele>164</ele>
        <time>2024-10-29T10:57:27+01:00</time>
      </trkpt>
      <trkpt lat="43.51684" lon="6.89889">
        <ele>167</ele>
        <time>2024-10-29T10:58:18+01:00</time>
      </trkpt>
      <trkpt lat="43.5168" lon="6.89879">
        <ele>169</ele>
        <time>2024-10-29T10:58:57+01:00</time>
      </trkpt>
      <trkpt lat="43.51675" lon="6.89869">
        <ele>171</ele>
        <time>2024-10-29T10:59:24+01:00</time>
      </trkpt>
      <trkpt lat="43.51672" lon="6.89857">
        <ele>174</ele>
        <time>2024-10-29T10:59:54+01:00</time>
      </trkpt>
      <trkpt lat="43.51677" lon="6.89848">
        <ele>176</ele>
        <time>2024-10-29T11:01:15+01:00</time>
      </trkpt>
      <trkpt lat="43.51685" lon="6.89842">
        <ele>177</ele>
        <time>2024-10-29T11:01:27+01:00</time>
      </trkpt>
      <trkpt lat="43.5169" lon="6.89831">
        <ele>178</ele>
        <time>2024-10-29T11:02:19+01:00</time>
      </trkpt>
      <trkpt lat="43.51695" lon="6.89821">
        <ele>179</ele>
        <time>2024-10-29T11:02:30+01:00</time>
      </trkpt>
      <trkpt lat="43.517" lon="6.89811">
        <ele>178</ele>
        <time>2024-10-29T11:02:42+01:00</time>
      </trkpt>
      <trkpt lat="43.51703" lon="6.89798">
        <ele>179</ele>
        <time>2024-10-29T11:02:54+01:00</time>
      </trkpt>
      <trkpt lat="43.51707" lon="6.89785">
        <ele>179</ele>
        <time>2024-10-29T11:03:06+01:00</time>
      </trkpt>
      <trkpt lat="43.51713" lon="6.89775">
        <ele>179</ele>
        <time>2024-10-29T11:03:19+01:00</time>
      </trkpt>
      <trkpt lat="43.51718" lon="6.89764">
        <ele>178</ele>
        <time>2024-10-29T11:03:30+01:00</time>
      </trkpt>
      <trkpt lat="43.51724" lon="6.89753">
        <ele>177</ele>
        <time>2024-10-29T11:04:30+01:00</time>
      </trkpt>
      <trkpt lat="43.51727" lon="6.8974">
        <ele>178</ele>
        <time>2024-10-29T11:04:45+01:00</time>
      </trkpt>
      <trkpt lat="43.51726" lon="6.89726">
        <ele>179</ele>
        <time>2024-10-29T11:05:45+01:00</time>
      </trkpt>
      <trkpt lat="43.51724" lon="6.89715">
        <ele>179</ele>
        <time>2024-10-29T11:05:59+01:00</time>
      </trkpt>
      <trkpt lat="43.5172" lon="6.89703">
        <ele>180</ele>
        <time>2024-10-29T11:06:10+01:00</time>
      </trkpt>
      <trkpt lat="43.51714" lon="6.89693">
        <ele>180</ele>
        <time>2024-10-29T11:06:25+01:00</time>
      </trkpt>
      <trkpt lat="43.51707" lon="6.89685">
        <ele>180</ele>
        <time>2024-10-29T11:06:37+01:00</time>
      </trkpt>
      <trkpt lat="43.51697" lon="6.8968">
        <ele>180</ele>
        <time>2024-10-29T11:06:53+01:00</time>
      </trkpt>
      <trkpt lat="43.51687" lon="6.8968">
        <ele>179</ele>
        <time>2024-10-29T11:07:08+01:00</time>
      </trkpt>
      <trkpt lat="43.51679" lon="6.89685">
        <ele>179</ele>
        <time>2024-10-29T11:07:21+01:00</time>
      </trkpt>
      <trkpt lat="43.5167" lon="6.89693">
        <ele>179</ele>
        <time>2024-10-29T11:07:36+01:00</time>
      </trkpt>
      <trkpt lat="43.51663" lon="6.89701">
        <ele>180</ele>
        <time>2024-10-29T11:07:48+01:00</time>
      </trkpt>
      <trkpt lat="43.51656" lon="6.89707">
        <ele>181</ele>
        <time>2024-10-29T11:08:00+01:00</time>
      </trkpt>
      <trkpt lat="43.51647" lon="6.89713">
        <ele>182</ele>
        <time>2024-10-29T11:08:15+01:00</time>
      </trkpt>
      <trkpt lat="43.51638" lon="6.89718">
        <ele>182</ele>
        <time>2024-10-29T11:08:27+01:00</time>
      </trkpt>
      <trkpt lat="43.51629" lon="6.89723">
        <ele>184</ele>
        <time>2024-10-29T11:08:40+01:00</time>
      </trkpt>
      <trkpt lat="43.5162" lon="6.89727">
        <ele>185</ele>
        <time>2024-10-29T11:08:54+01:00</time>
      </trkpt>
      <trkpt lat="43.51609" lon="6.89726">
        <ele>185</ele>
        <time>2024-10-29T11:09:09+01:00</time>
      </trkpt>
      <trkpt lat="43.516" lon="6.89727">
        <ele>186</ele>
        <time>2024-10-29T11:09:21+01:00</time>
      </trkpt>
      <trkpt lat="43.51591" lon="6.89726">
        <ele>186</ele>
        <time>2024-10-29T11:09:33+01:00</time>
      </trkpt>
      <trkpt lat="43.51582" lon="6.89724">
        <ele>187</ele>
        <time>2024-10-29T11:09:46+01:00</time>
      </trkpt>
      <trkpt lat="43.51573" lon="6.89721">
        <ele>188</ele>
        <time>2024-10-29T11:10:18+01:00</time>
      </trkpt>
      <trkpt lat="43.51564" lon="6.89717">
        <ele>188</ele>
        <time>2024-10-29T11:10:34+01:00</time>
      </trkpt>
      <trkpt lat="43.51556" lon="6.89709">
        <ele>188</ele>
        <time>2024-10-29T11:12:04+01:00</time>
      </trkpt>
      <trkpt lat="43.51548" lon="6.89702">
        <ele>189</ele>
        <time>2024-10-29T11:12:20+01:00</time>
      </trkpt>
      <trkpt lat="43.5154" lon="6.89695">
        <ele>190</ele>
        <time>2024-10-29T11:12:31+01:00</time>
      </trkpt>
      <trkpt lat="43.51533" lon="6.89684">
        <ele>190</ele>
        <time>2024-10-29T11:12:46+01:00</time>
      </trkpt>
      <trkpt lat="43.51527" lon="6.89674">
        <ele>190</ele>
        <time>2024-10-29T11:12:58+01:00</time>
      </trkpt>
      <trkpt lat="43.51521" lon="6.89665">
        <ele>190</ele>
        <time>2024-10-29T11:13:10+01:00</time>
      </trkpt>
      <trkpt lat="43.51515" lon="6.89657">
        <ele>189</ele>
        <time>2024-10-29T11:13:22+01:00</time>
      </trkpt>
      <trkpt lat="43.51508" lon="6.89649">
        <ele>189</ele>
        <time>2024-10-29T11:13:37+01:00</time>
      </trkpt>
      <trkpt lat="43.515" lon="6.8964">
        <ele>188</ele>
        <time>2024-10-29T11:13:49+01:00</time>
      </trkpt>
      <trkpt lat="43.51493" lon="6.89631">
        <ele>187</ele>
        <time>2024-10-29T11:13:59+01:00</time>
      </trkpt>
      <trkpt lat="43.51484" lon="6.89623">
        <ele>187</ele>
        <time>2024-10-29T11:14:11+01:00</time>
      </trkpt>
      <trkpt lat="43.51476" lon="6.89613">
        <ele>187</ele>
        <time>2024-10-29T11:14:22+01:00</time>
      </trkpt>
      <trkpt lat="43.51471" lon="6.89601">
        <ele>188</ele>
        <time>2024-10-29T11:14:34+01:00</time>
      </trkpt>
      <trkpt lat="43.51467" lon="6.89589">
        <ele>187</ele>
        <time>2024-10-29T11:14:46+01:00</time>
      </trkpt>
      <trkpt lat="43.51464" lon="6.89576">
        <ele>187</ele>
        <time>2024-10-29T11:14:59+01:00</time>
      </trkpt>
      <trkpt lat="43.51458" lon="6.89564">
        <ele>187</ele>
        <time>2024-10-29T11:15:09+01:00</time>
      </trkpt>
      <trkpt lat="43.5145" lon="6.89555">
        <ele>187</ele>
        <time>2024-10-29T11:15:21+01:00</time>
      </trkpt>
      <trkpt lat="43.51442" lon="6.89548">
        <ele>187</ele>
        <time>2024-10-29T11:15:31+01:00</time>
      </trkpt>
      <trkpt lat="43.51434" lon="6.89542">
        <ele>187</ele>
        <time>2024-10-29T11:15:42+01:00</time>
      </trkpt>
      <trkpt lat="43.51427" lon="6.89535">
        <ele>188</ele>
        <time>2024-10-29T11:15:54+01:00</time>
      </trkpt>
      <trkpt lat="43.5142" lon="6.89529">
        <ele>190</ele>
        <time>2024-10-29T11:16:03+01:00</time>
      </trkpt>
      <trkpt lat="43.51411" lon="6.89525">
        <ele>191</ele>
        <time>2024-10-29T11:16:12+01:00</time>
      </trkpt>
      <trkpt lat="43.51401" lon="6.89523">
        <ele>191</ele>
        <time>2024-10-29T11:16:24+01:00</time>
      </trkpt>
      <trkpt lat="43.51392" lon="6.89523">
        <ele>191</ele>
        <time>2024-10-29T11:16:36+01:00</time>
      </trkpt>
      <trkpt lat="43.51383" lon="6.89523">
        <ele>191</ele>
        <time>2024-10-29T11:16:46+01:00</time>
      </trkpt>
      <trkpt lat="43.51373" lon="6.89523">
        <ele>190</ele>
        <time>2024-10-29T11:16:57+01:00</time>
      </trkpt>
      <trkpt lat="43.51365" lon="6.89522">
        <ele>190</ele>
        <time>2024-10-29T11:17:16+01:00</time>
      </trkpt>
      <trkpt lat="43.51355" lon="6.8952">
        <ele>190</ele>
        <time>2024-10-29T11:17:28+01:00</time>
      </trkpt>
      <trkpt lat="43.51346" lon="6.89517">
        <ele>190</ele>
        <time>2024-10-29T11:17:41+01:00</time>
      </trkpt>
      <trkpt lat="43.51337" lon="6.89514">
        <ele>190</ele>
        <time>2024-10-29T11:17:52+01:00</time>
      </trkpt>
      <trkpt lat="43.51328" lon="6.89511">
        <ele>190</ele>
        <time>2024-10-29T11:18:07+01:00</time>
      </trkpt>
      <trkpt lat="43.51318" lon="6.89508">
        <ele>190</ele>
        <time>2024-10-29T11:18:19+01:00</time>
      </trkpt>
      <trkpt lat="43.51309" lon="6.89505">
        <ele>190</ele>
        <time>2024-10-29T11:18:44+01:00</time>
      </trkpt>
      <trkpt lat="43.51299" lon="6.89503">
        <ele>190</ele>
        <time>2024-10-29T11:18:52+01:00</time>
      </trkpt>
      <trkpt lat="43.51289" lon="6.89502">
        <ele>190</ele>
        <time>2024-10-29T11:19:04+01:00</time>
      </trkpt>
      <trkpt lat="43.51279" lon="6.895">
        <ele>190</ele>
        <time>2024-10-29T11:19:19+01:00</time>
      </trkpt>
      <trkpt lat="43.51271" lon="6.89493">
        <ele>191</ele>
        <time>2024-10-29T11:19:31+01:00</time>
      </trkpt>
      <trkpt lat="43.51263" lon="6.89483">
        <ele>192</ele>
        <time>2024-10-29T11:19:49+01:00</time>
      </trkpt>
      <trkpt lat="43.51254" lon="6.89476">
        <ele>195</ele>
        <time>2024-10-29T11:20:01+01:00</time>
      </trkpt>
      <trkpt lat="43.51247" lon="6.89467">
        <ele>196</ele>
        <time>2024-10-29T11:20:19+01:00</time>
      </trkpt>
      <trkpt lat="43.5124" lon="6.8946">
        <ele>198</ele>
        <time>2024-10-29T11:20:31+01:00</time>
      </trkpt>
      <trkpt lat="43.51234" lon="6.8945">
        <ele>200</ele>
        <time>2024-10-29T11:20:43+01:00</time>
      </trkpt>
      <trkpt lat="43.51229" lon="6.89438">
        <ele>201</ele>
        <time>2024-10-29T11:21:01+01:00</time>
      </trkpt>
      <trkpt lat="43.51224" lon="6.89428">
        <ele>203</ele>
        <time>2024-10-29T11:21:20+01:00</time>
      </trkpt>
      <trkpt lat="43.51221" lon="6.89417">
        <ele>205</ele>
        <time>2024-10-29T11:21:34+01:00</time>
      </trkpt>
      <trkpt lat="43.51218" lon="6.89406">
        <ele>204</ele>
        <time>2024-10-29T11:22:28+01:00</time>
      </trkpt>
      <trkpt lat="43.51215" lon="6.89393">
        <ele>204</ele>
        <time>2024-10-29T11:22:43+01:00</time>
      </trkpt>
      <trkpt lat="43.51208" lon="6.89384">
        <ele>204</ele>
        <time>2024-10-29T11:22:55+01:00</time>
      </trkpt>
      <trkpt lat="43.51199" lon="6.89378">
        <ele>205</ele>
        <time>2024-10-29T11:23:08+01:00</time>
      </trkpt>
      <trkpt lat="43.51189" lon="6.89373">
        <ele>206</ele>
        <time>2024-10-29T11:26:20+01:00</time>
      </trkpt>
      <trkpt lat="43.51179" lon="6.89371">
        <ele>207</ele>
        <time>2024-10-29T11:26:35+01:00</time>
      </trkpt>
      <trkpt lat="43.5117" lon="6.89369">
        <ele>208</ele>
        <time>2024-10-29T11:26:47+01:00</time>
      </trkpt>
      <trkpt lat="43.51161" lon="6.89367">
        <ele>209</ele>
        <time>2024-10-29T11:27:01+01:00</time>
      </trkpt>
      <trkpt lat="43.51152" lon="6.89364">
        <ele>209</ele>
        <time>2024-10-29T11:27:13+01:00</time>
      </trkpt>
      <trkpt lat="43.51143" lon="6.89365">
        <ele>211</ele>
        <time>2024-10-29T11:27:25+01:00</time>
      </trkpt>
      <trkpt lat="43.51133" lon="6.89365">
        <ele>212</ele>
        <time>2024-10-29T11:27:37+01:00</time>
      </trkpt>
      <trkpt lat="43.51123" lon="6.89368">
        <ele>213</ele>
        <time>2024-10-29T11:27:52+01:00</time>
      </trkpt>
      <trkpt lat="43.51113" lon="6.89371">
        <ele>214</ele>
        <time>2024-10-29T11:28:19+01:00</time>
      </trkpt>
      <trkpt lat="43.51105" lon="6.89374">
        <ele>215</ele>
        <time>2024-10-29T11:28:34+01:00</time>
      </trkpt>
      <trkpt lat="43.51096" lon="6.89377">
        <ele>217</ele>
        <time>2024-10-29T11:28:50+01:00</time>
      </trkpt>
      <trkpt lat="43.51087" lon="6.8938">
        <ele>218</ele>
        <time>2024-10-29T11:29:04+01:00</time>
      </trkpt>
      <trkpt lat="43.51077" lon="6.89381">
        <ele>219</ele>
        <time>2024-10-29T11:29:16+01:00</time>
      </trkpt>
      <trkpt lat="43.51066" lon="6.89381">
        <ele>220</ele>
        <time>2024-10-29T11:29:28+01:00</time>
      </trkpt>
      <trkpt lat="43.51057" lon="6.89386">
        <ele>222</ele>
        <time>2024-10-29T11:29:56+01:00</time>
      </trkpt>
      <trkpt lat="43.51048" lon="6.8939">
        <ele>225</ele>
        <time>2024-10-29T11:30:06+01:00</time>
      </trkpt>
      <trkpt lat="43.51039" lon="6.89394">
        <ele>227</ele>
        <time>2024-10-29T11:30:17+01:00</time>
      </trkpt>
      <trkpt lat="43.51032" lon="6.89399">
        <ele>229</ele>
        <time>2024-10-29T11:30:32+01:00</time>
      </trkpt>
      <trkpt lat="43.51024" lon="6.89403">
        <ele>231</ele>
        <time>2024-10-29T11:30:50+01:00</time>
      </trkpt>
      <trkpt lat="43.51015" lon="6.89406">
        <ele>233</ele>
        <time>2024-10-29T11:31:08+01:00</time>
      </trkpt>
      <trkpt lat="43.51005" lon="6.8941">
        <ele>236</ele>
        <time>2024-10-29T11:31:23+01:00</time>
      </trkpt>
      <trkpt lat="43.50997" lon="6.89416">
        <ele>238</ele>
        <time>2024-10-29T11:31:38+01:00</time>
      </trkpt>
      <trkpt lat="43.50989" lon="6.89424">
        <ele>238</ele>
        <time>2024-10-29T11:31:53+01:00</time>
      </trkpt>
      <trkpt lat="43.50982" lon="6.89432">
        <ele>238</ele>
        <time>2024-10-29T11:32:08+01:00</time>
      </trkpt>
      <trkpt lat="43.50973" lon="6.89436">
        <ele>239</ele>
        <time>2024-10-29T11:32:38+01:00</time>
      </trkpt>
      <trkpt lat="43.50963" lon="6.89437">
        <ele>241</ele>
        <time>2024-10-29T11:32:50+01:00</time>
      </trkpt>
      <trkpt lat="43.50956" lon="6.89437">
        <ele>243</ele>
        <time>2024-10-29T11:33:02+01:00</time>
      </trkpt>
      <trkpt lat="43.50959" lon="6.89429">
        <ele>245</ele>
        <time>2024-10-29T11:33:30+01:00</time>
      </trkpt>
      <trkpt lat="43.50968" lon="6.89425">
        <ele>245</ele>
        <time>2024-10-29T11:33:42+01:00</time>
      </trkpt>
      <trkpt lat="43.50977" lon="6.89419">
        <ele>245</ele>
        <time>2024-10-29T11:33:55+01:00</time>
      </trkpt>
      <trkpt lat="43.50984" lon="6.89409">
        <ele>244</ele>
        <time>2024-10-29T11:34:10+01:00</time>
      </trkpt>
      <trkpt lat="43.50991" lon="6.89399">
        <ele>243</ele>
        <time>2024-10-29T11:34:22+01:00</time>
      </trkpt>
      <trkpt lat="43.50994" lon="6.89387">
        <ele>243</ele>
        <time>2024-10-29T11:34:33+01:00</time>
      </trkpt>
      <trkpt lat="43.50996" lon="6.89375">
        <ele>241</ele>
        <time>2024-10-29T11:34:45+01:00</time>
      </trkpt>
      <trkpt lat="43.50989" lon="6.89365">
        <ele>243</ele>
        <time>2024-10-29T11:35:01+01:00</time>
      </trkpt>
      <trkpt lat="43.50981" lon="6.89356">
        <ele>244</ele>
        <time>2024-10-29T11:35:15+01:00</time>
      </trkpt>
      <trkpt lat="43.50974" lon="6.89348">
        <ele>245</ele>
        <time>2024-10-29T11:35:30+01:00</time>
      </trkpt>
      <trkpt lat="43.50967" lon="6.89341">
        <ele>245</ele>
        <time>2024-10-29T11:36:17+01:00</time>
      </trkpt>
      <trkpt lat="43.50958" lon="6.89335">
        <ele>246</ele>
        <time>2024-10-29T11:36:28+01:00</time>
      </trkpt>
      <trkpt lat="43.50948" lon="6.89331">
        <ele>247</ele>
        <time>2024-10-29T11:36:43+01:00</time>
      </trkpt>
      <trkpt lat="43.5094" lon="6.8933">
        <ele>248</ele>
        <time>2024-10-29T11:36:55+01:00</time>
      </trkpt>
      <trkpt lat="43.50931" lon="6.89328">
        <ele>249</ele>
        <time>2024-10-29T11:37:04+01:00</time>
      </trkpt>
      <trkpt lat="43.50921" lon="6.8933">
        <ele>251</ele>
        <time>2024-10-29T11:37:17+01:00</time>
      </trkpt>
      <trkpt lat="43.50911" lon="6.89334">
        <ele>253</ele>
        <time>2024-10-29T11:37:31+01:00</time>
      </trkpt>
      <trkpt lat="43.50901" lon="6.89337">
        <ele>255</ele>
        <time>2024-10-29T11:38:25+01:00</time>
      </trkpt>
      <trkpt lat="43.50891" lon="6.8934">
        <ele>256</ele>
        <time>2024-10-29T11:38:41+01:00</time>
      </trkpt>
      <trkpt lat="43.50882" lon="6.89338">
        <ele>258</ele>
        <time>2024-10-29T11:38:55+01:00</time>
      </trkpt>
      <trkpt lat="43.50876" lon="6.89329">
        <ele>259</ele>
        <time>2024-10-29T11:39:11+01:00</time>
      </trkpt>
      <trkpt lat="43.50868" lon="6.8932">
        <ele>261</ele>
        <time>2024-10-29T11:39:25+01:00</time>
      </trkpt>
      <trkpt lat="43.50861" lon="6.89312">
        <ele>263</ele>
        <time>2024-10-29T11:39:37+01:00</time>
      </trkpt>
      <trkpt lat="43.50856" lon="6.89302">
        <ele>263</ele>
        <time>2024-10-29T11:39:49+01:00</time>
      </trkpt>
      <trkpt lat="43.5085" lon="6.89292">
        <ele>263</ele>
        <time>2024-10-29T11:40:01+01:00</time>
      </trkpt>
      <trkpt lat="43.50842" lon="6.89284">
        <ele>263</ele>
        <time>2024-10-29T11:40:37+01:00</time>
      </trkpt>
      <trkpt lat="43.50833" lon="6.89282">
        <ele>264</ele>
        <time>2024-10-29T11:40:49+01:00</time>
      </trkpt>
      <trkpt lat="43.50823" lon="6.89283">
        <ele>263</ele>
        <time>2024-10-29T11:41:07+01:00</time>
      </trkpt>
      <trkpt lat="43.50813" lon="6.89285">
        <ele>262</ele>
        <time>2024-10-29T11:41:16+01:00</time>
      </trkpt>
      <trkpt lat="43.50804" lon="6.89287">
        <ele>262</ele>
        <time>2024-10-29T11:42:04+01:00</time>
      </trkpt>
      <trkpt lat="43.50794" lon="6.89292">
        <ele>265</ele>
        <time>2024-10-29T11:42:16+01:00</time>
      </trkpt>
      <trkpt lat="43.50785" lon="6.89295">
        <ele>268</ele>
        <time>2024-10-29T11:43:14+01:00</time>
      </trkpt>
      <trkpt lat="43.50776" lon="6.89299">
        <ele>270</ele>
        <time>2024-10-29T11:43:26+01:00</time>
      </trkpt>
      <trkpt lat="43.50768" lon="6.89303">
        <ele>273</ele>
        <time>2024-10-29T11:43:38+01:00</time>
      </trkpt>
      <trkpt lat="43.50759" lon="6.89307">
        <ele>276</ele>
        <time>2024-10-29T11:43:57+01:00</time>
      </trkpt>
      <trkpt lat="43.5075" lon="6.89314">
        <ele>277</ele>
        <time>2024-10-29T11:44:08+01:00</time>
      </trkpt>
      <trkpt lat="43.50742" lon="6.89321">
        <ele>279</ele>
        <time>2024-10-29T11:44:23+01:00</time>
      </trkpt>
      <trkpt lat="43.50733" lon="6.89325">
        <ele>280</ele>
        <time>2024-10-29T11:44:38+01:00</time>
      </trkpt>
      <trkpt lat="43.50713" lon="6.89332">
        <ele>282</ele>
        <time>2024-10-29T11:44:51+01:00</time>
      </trkpt>
      <trkpt lat="43.50684" lon="6.89354">
        <ele>280</ele>
      </trkpt>
      <trkpt lat="43.50654" lon="6.89385">
        <ele>280</ele>
      </trkpt>
      <trkpt lat="43.50629" lon="6.89407">
        <ele>282</ele>
      </trkpt>
      <trkpt lat="43.50613" lon="6.89456">
        <ele>281</ele>
      </trkpt>
      <trkpt lat="43.50618" lon="6.89499">
        <ele>281</ele>
      </trkpt>
      <trkpt lat="43.50618" lon="6.89556">
        <ele>286</ele>
      </trkpt>
      <trkpt lat="43.50594" lon="6.89603">
        <ele>299</ele>
      </trkpt>
      <trkpt lat="43.50577" lon="6.89633">
        <ele>304</ele>
      </trkpt>
      <trkpt lat="43.50559" lon="6.89643">
        <ele>309</ele>
      </trkpt>
      <trkpt lat="43.5053" lon="6.89679">
        <ele>315</ele>
        <time>2024-10-29T12:30:40+01:00</time>
      </trkpt>
      <trkpt lat="43.50512" lon="6.89695">
        <ele>319</ele>
      </trkpt>
      <trkpt lat="43.50501" lon="6.89705">
        <ele>321</ele>
      </trkpt>
      <trkpt lat="43.50495" lon="6.89726">
        <ele>320</ele>
        <time>2024-10-29T12:39:31+01:00</time>
      </trkpt>
      <trkpt lat="43.50492" lon="6.89714">
        <ele>320</ele>
        <time>2024-10-29T12:39:52+01:00</time>
      </trkpt>
      <trkpt lat="43.50488" lon="6.89702">
        <ele>321</ele>
        <time>2024-10-29T12:40:07+01:00</time>
      </trkpt>
      <trkpt lat="43.50486" lon="6.8969">
        <ele>322</ele>
        <time>2024-10-29T12:40:19+01:00</time>
      </trkpt>
      <trkpt lat="43.50482" lon="6.89679">
        <ele>325</ele>
        <time>2024-10-29T12:40:34+01:00</time>
      </trkpt>
      <trkpt lat="43.50476" lon="6.89668">
        <ele>328</ele>
        <time>2024-10-29T12:40:52+01:00</time>
      </trkpt>
      <trkpt lat="43.50469" lon="6.8966">
        <ele>330</ele>
        <time>2024-10-29T12:41:04+01:00</time>
      </trkpt>
      <trkpt lat="43.50462" lon="6.89653">
        <ele>331</ele>
        <time>2024-10-29T12:41:16+01:00</time>
      </trkpt>
      <trkpt lat="43.50455" lon="6.89645">
        <ele>333</ele>
        <time>2024-10-29T12:41:28+01:00</time>
      </trkpt>
      <trkpt lat="43.50447" lon="6.89635">
        <ele>336</ele>
        <time>2024-10-29T12:41:43+01:00</time>
      </trkpt>
      <trkpt lat="43.50439" lon="6.89627">
        <ele>336</ele>
        <time>2024-10-29T12:41:58+01:00</time>
      </trkpt>
      <trkpt lat="43.50433" lon="6.89617">
        <ele>336</ele>
        <time>2024-10-29T12:42:13+01:00</time>
      </trkpt>
      <trkpt lat="43.50426" lon="6.89607">
        <ele>337</ele>
        <time>2024-10-29T12:42:28+01:00</time>
      </trkpt>
      <trkpt lat="43.50421" lon="6.89596">
        <ele>338</ele>
        <time>2024-10-29T12:42:38+01:00</time>
      </trkpt>
      <trkpt lat="43.50417" lon="6.89584">
        <ele>341</ele>
        <time>2024-10-29T12:42:49+01:00</time>
      </trkpt>
      <trkpt lat="43.5041" lon="6.89576">
        <ele>341</ele>
        <time>2024-10-29T12:42:59+01:00</time>
      </trkpt>
      <trkpt lat="43.50402" lon="6.8957">
        <ele>340</ele>
        <time>2024-10-29T12:43:10+01:00</time>
      </trkpt>
      <trkpt lat="43.50392" lon="6.89564">
        <ele>338</ele>
        <time>2024-10-29T12:43:19+01:00</time>
      </trkpt>
      <trkpt lat="43.50384" lon="6.89557">
        <ele>338</ele>
        <time>2024-10-29T12:43:31+01:00</time>
      </trkpt>
      <trkpt lat="43.50377" lon="6.89547">
        <ele>339</ele>
        <time>2024-10-29T12:43:43+01:00</time>
      </trkpt>
      <trkpt lat="43.50369" lon="6.89538">
        <ele>340</ele>
        <time>2024-10-29T12:44:01+01:00</time>
      </trkpt>
      <trkpt lat="43.50362" lon="6.8953">
        <ele>339</ele>
        <time>2024-10-29T12:44:13+01:00</time>
      </trkpt>
      <trkpt lat="43.50353" lon="6.89521">
        <ele>339</ele>
        <time>2024-10-29T12:44:28+01:00</time>
      </trkpt>
      <trkpt lat="43.50347" lon="6.89512">
        <ele>340</ele>
        <time>2024-10-29T12:44:40+01:00</time>
      </trkpt>
      <trkpt lat="43.50341" lon="6.89502">
        <ele>341</ele>
        <time>2024-10-29T12:44:52+01:00</time>
      </trkpt>
      <trkpt lat="43.50336" lon="6.89492">
        <ele>342</ele>
        <time>2024-10-29T12:45:07+01:00</time>
      </trkpt>
      <trkpt lat="43.5033" lon="6.89481">
        <ele>343</ele>
        <time>2024-10-29T12:45:25+01:00</time>
      </trkpt>
      <trkpt lat="43.50324" lon="6.89469">
        <ele>345</ele>
        <time>2024-10-29T12:45:37+01:00</time>
      </trkpt>
      <trkpt lat="43.5032" lon="6.89457">
        <ele>348</ele>
        <time>2024-10-29T12:45:53+01:00</time>
      </trkpt>
      <trkpt lat="43.50314" lon="6.89447">
        <ele>349</ele>
        <time>2024-10-29T12:46:04+01:00</time>
      </trkpt>
      <trkpt lat="43.50309" lon="6.89435">
        <ele>351</ele>
        <time>2024-10-29T12:46:22+01:00</time>
      </trkpt>
      <trkpt lat="43.50305" lon="6.89423">
        <ele>353</ele>
        <time>2024-10-29T12:46:34+01:00</time>
      </trkpt>
      <trkpt lat="43.50299" lon="6.89413">
        <ele>355</ele>
        <time>2024-10-29T12:46:49+01:00</time>
      </trkpt>
      <trkpt lat="43.50291" lon="6.89403">
        <ele>355</ele>
        <time>2024-10-29T12:47:04+01:00</time>
      </trkpt>
      <trkpt lat="43.50283" lon="6.89396">
        <ele>355</ele>
        <time>2024-10-29T12:47:16+01:00</time>
      </trkpt>
      <trkpt lat="43.50275" lon="6.89388">
        <ele>355</ele>
        <time>2024-10-29T12:47:31+01:00</time>
      </trkpt>
      <trkpt lat="43.50267" lon="6.89381">
        <ele>356</ele>
        <time>2024-10-29T12:47:46+01:00</time>
      </trkpt>
      <trkpt lat="43.50259" lon="6.89375">
        <ele>355</ele>
        <time>2024-10-29T12:47:58+01:00</time>
      </trkpt>
      <trkpt lat="43.50251" lon="6.89368">
        <ele>355</ele>
        <time>2024-10-29T12:48:10+01:00</time>
      </trkpt>
      <trkpt lat="43.50244" lon="6.8936">
        <ele>356</ele>
        <time>2024-10-29T12:48:22+01:00</time>
      </trkpt>
      <trkpt lat="43.50237" lon="6.89352">
        <ele>356</ele>
        <time>2024-10-29T12:48:34+01:00</time>
      </trkpt>
      <trkpt lat="43.50231" lon="6.89344">
        <ele>357</ele>
        <time>2024-10-29T12:48:46+01:00</time>
      </trkpt>
      <trkpt lat="43.50224" lon="6.89335">
        <ele>357</ele>
        <time>2024-10-29T12:49:01+01:00</time>
      </trkpt>
      <trkpt lat="43.50215" lon="6.89329">
        <ele>358</ele>
        <time>2024-10-29T12:49:13+01:00</time>
      </trkpt>
      <trkpt lat="43.50206" lon="6.89324">
        <ele>359</ele>
        <time>2024-10-29T12:49:28+01:00</time>
      </trkpt>
      <trkpt lat="43.50197" lon="6.89321">
        <ele>360</ele>
        <time>2024-10-29T12:49:37+01:00</time>
      </trkpt>
      <trkpt lat="43.50188" lon="6.89321">
        <ele>360</ele>
        <time>2024-10-29T12:49:49+01:00</time>
      </trkpt>
      <trkpt lat="43.50178" lon="6.89321">
        <ele>362</ele>
        <time>2024-10-29T12:50:01+01:00</time>
      </trkpt>
      <trkpt lat="43.50168" lon="6.89323">
        <ele>362</ele>
        <time>2024-10-29T12:50:14+01:00</time>
      </trkpt>
      <trkpt lat="43.50159" lon="6.89328">
        <ele>363</ele>
        <time>2024-10-29T12:50:25+01:00</time>
      </trkpt>
      <trkpt lat="43.50151" lon="6.89337">
        <ele>362</ele>
        <time>2024-10-29T12:50:38+01:00</time>
      </trkpt>
      <trkpt lat="43.50143" lon="6.89345">
        <ele>362</ele>
        <time>2024-10-29T12:50:49+01:00</time>
      </trkpt>
      <trkpt lat="43.50136" lon="6.89354">
        <ele>362</ele>
        <time>2024-10-29T12:51:01+01:00</time>
      </trkpt>
      <trkpt lat="43.50129" lon="6.89364">
        <ele>361</ele>
        <time>2024-10-29T12:51:16+01:00</time>
      </trkpt>
      <trkpt lat="43.50121" lon="6.89373">
        <ele>361</ele>
        <time>2024-10-29T12:51:29+01:00</time>
      </trkpt>
      <trkpt lat="43.50113" lon="6.89382">
        <ele>361</ele>
        <time>2024-10-29T12:51:52+01:00</time>
      </trkpt>
      <trkpt lat="43.50105" lon="6.89389">
        <ele>360</ele>
        <time>2024-10-29T12:52:04+01:00</time>
      </trkpt>
      <trkpt lat="43.50097" lon="6.89395">
        <ele>359</ele>
        <time>2024-10-29T12:52:13+01:00</time>
      </trkpt>
      <trkpt lat="43.50088" lon="6.89398">
        <ele>358</ele>
        <time>2024-10-29T12:52:25+01:00</time>
      </trkpt>
      <trkpt lat="43.50077" lon="6.89401">
        <ele>357</ele>
        <time>2024-10-29T12:52:37+01:00</time>
      </trkpt>
      <trkpt lat="43.50066" lon="6.894">
        <ele>356</ele>
        <time>2024-10-29T12:52:52+01:00</time>
      </trkpt>
      <trkpt lat="43.50056" lon="6.89401">
        <ele>355</ele>
        <time>2024-10-29T12:53:01+01:00</time>
      </trkpt>
      <trkpt lat="43.50047" lon="6.89402">
        <ele>354</ele>
        <time>2024-10-29T12:53:10+01:00</time>
      </trkpt>
      <trkpt lat="43.50038" lon="6.89404">
        <ele>353</ele>
        <time>2024-10-29T12:53:23+01:00</time>
      </trkpt>
      <trkpt lat="43.5003" lon="6.89407">
        <ele>352</ele>
        <time>2024-10-29T12:53:38+01:00</time>
      </trkpt>
      <trkpt lat="43.5002" lon="6.89408">
        <ele>351</ele>
        <time>2024-10-29T12:54:01+01:00</time>
      </trkpt>
      <trkpt lat="43.50013" lon="6.89413">
        <ele>350</ele>
        <time>2024-10-29T12:54:16+01:00</time>
      </trkpt>
      <trkpt lat="43.50011" lon="6.89424">
        <ele>350</ele>
        <time>2024-10-29T12:55:32+01:00</time>
      </trkpt>
      <trkpt lat="43.50007" lon="6.89435">
        <ele>350</ele>
        <time>2024-10-29T12:55:44+01:00</time>
      </trkpt>
      <trkpt lat="43.50001" lon="6.89446">
        <ele>351</ele>
        <time>2024-10-29T12:55:59+01:00</time>
      </trkpt>
      <trkpt lat="43.49995" lon="6.89456">
        <ele>351</ele>
        <time>2024-10-29T12:56:11+01:00</time>
      </trkpt>
      <trkpt lat="43.4999" lon="6.89466">
        <ele>351</ele>
        <time>2024-10-29T12:56:23+01:00</time>
      </trkpt>
      <trkpt lat="43.49986" lon="6.89478">
        <ele>350</ele>
        <time>2024-10-29T12:56:35+01:00</time>
      </trkpt>
      <trkpt lat="43.49981" lon="6.89488">
        <ele>349</ele>
        <time>2024-10-29T12:56:44+01:00</time>
      </trkpt>
      <trkpt lat="43.49977" lon="6.89498">
        <ele>350</ele>
        <time>2024-10-29T12:56:54+01:00</time>
      </trkpt>
      <trkpt lat="43.49974" lon="6.8951">
        <ele>349</ele>
        <time>2024-10-29T12:57:02+01:00</time>
      </trkpt>
      <trkpt lat="43.49971" lon="6.89522">
        <ele>348</ele>
        <time>2024-10-29T12:57:14+01:00</time>
      </trkpt>
      <trkpt lat="43.4997" lon="6.89536">
        <ele>347</ele>
        <time>2024-10-29T12:57:26+01:00</time>
      </trkpt>
      <trkpt lat="43.49969" lon="6.89549">
        <ele>346</ele>
        <time>2024-10-29T12:57:35+01:00</time>
      </trkpt>
      <trkpt lat="43.49968" lon="6.89563">
        <ele>344</ele>
        <time>2024-10-29T12:57:47+01:00</time>
      </trkpt>
      <trkpt lat="43.49968" lon="6.89575">
        <ele>343</ele>
        <time>2024-10-29T12:57:56+01:00</time>
      </trkpt>
      <trkpt lat="43.49967" lon="6.89588">
        <ele>342</ele>
        <time>2024-10-29T12:58:08+01:00</time>
      </trkpt>
      <trkpt lat="43.49966" lon="6.89601">
        <ele>342</ele>
        <time>2024-10-29T12:58:17+01:00</time>
      </trkpt>
      <trkpt lat="43.49965" lon="6.89613">
        <ele>341</ele>
        <time>2024-10-29T12:58:26+01:00</time>
      </trkpt>
      <trkpt lat="43.49967" lon="6.89624">
        <ele>339</ele>
        <time>2024-10-29T12:58:35+01:00</time>
      </trkpt>
      <trkpt lat="43.49968" lon="6.89637">
        <ele>338</ele>
        <time>2024-10-29T12:58:48+01:00</time>
      </trkpt>
      <trkpt lat="43.4997" lon="6.89652">
        <ele>336</ele>
        <time>2024-10-29T12:58:56+01:00</time>
      </trkpt>
      <trkpt lat="43.49972" lon="6.89665">
        <ele>334</ele>
        <time>2024-10-29T12:59:08+01:00</time>
      </trkpt>
      <trkpt lat="43.49973" lon="6.89679">
        <ele>333</ele>
        <time>2024-10-29T12:59:20+01:00</time>
      </trkpt>
      <trkpt lat="43.49975" lon="6.89692">
        <ele>332</ele>
        <time>2024-10-29T12:59:32+01:00</time>
      </trkpt>
      <trkpt lat="43.49975" lon="6.89706">
        <ele>332</ele>
        <time>2024-10-29T12:59:44+01:00</time>
      </trkpt>
      <trkpt lat="43.49973" lon="6.89719">
        <ele>331</ele>
        <time>2024-10-29T12:59:56+01:00</time>
      </trkpt>
      <trkpt lat="43.49969" lon="6.89732">
        <ele>331</ele>
        <time>2024-10-29T13:00:08+01:00</time>
      </trkpt>
      <trkpt lat="43.49965" lon="6.89743">
        <ele>330</ele>
        <time>2024-10-29T13:00:17+01:00</time>
      </trkpt>
      <trkpt lat="43.49961" lon="6.89756">
        <ele>329</ele>
        <time>2024-10-29T13:00:29+01:00</time>
      </trkpt>
      <trkpt lat="43.4996" lon="6.89768">
        <ele>327</ele>
        <time>2024-10-29T13:00:41+01:00</time>
      </trkpt>
      <trkpt lat="43.4996" lon="6.89782">
        <ele>325</ele>
        <time>2024-10-29T13:00:53+01:00</time>
      </trkpt>
      <trkpt lat="43.4996" lon="6.89795">
        <ele>323</ele>
        <time>2024-10-29T13:01:08+01:00</time>
      </trkpt>
      <trkpt lat="43.49958" lon="6.89807">
        <ele>322</ele>
        <time>2024-10-29T13:01:20+01:00</time>
      </trkpt>
      <trkpt lat="43.49953" lon="6.89818">
        <ele>321</ele>
        <time>2024-10-29T13:01:29+01:00</time>
      </trkpt>
      <trkpt lat="43.49944" lon="6.89824">
        <ele>320</ele>
        <time>2024-10-29T13:01:41+01:00</time>
      </trkpt>
      <trkpt lat="43.49935" lon="6.89818">
        <ele>319</ele>
        <time>2024-10-29T13:01:56+01:00</time>
      </trkpt>
      <trkpt lat="43.49926" lon="6.8981">
        <ele>319</ele>
        <time>2024-10-29T13:02:09+01:00</time>
      </trkpt>
      <trkpt lat="43.49919" lon="6.89801">
        <ele>319</ele>
        <time>2024-10-29T13:02:20+01:00</time>
      </trkpt>
      <trkpt lat="43.4991" lon="6.89794">
        <ele>319</ele>
        <time>2024-10-29T13:02:32+01:00</time>
      </trkpt>
      <trkpt lat="43.49902" lon="6.89787">
        <ele>319</ele>
        <time>2024-10-29T13:02:41+01:00</time>
      </trkpt>
      <trkpt lat="43.49894" lon="6.89779">
        <ele>319</ele>
        <time>2024-10-29T13:02:53+01:00</time>
      </trkpt>
      <trkpt lat="43.49884" lon="6.89775">
        <ele>318</ele>
        <time>2024-10-29T13:03:05+01:00</time>
      </trkpt>
      <trkpt lat="43.49875" lon="6.89771">
        <ele>317</ele>
        <time>2024-10-29T13:03:26+01:00</time>
      </trkpt>
      <trkpt lat="43.49865" lon="6.89769">
        <ele>315</ele>
        <time>2024-10-29T13:03:38+01:00</time>
      </trkpt>
      <trkpt lat="43.49855" lon="6.89769">
        <ele>314</ele>
        <time>2024-10-29T13:03:50+01:00</time>
      </trkpt>
      <trkpt lat="43.49846" lon="6.89773">
        <ele>312</ele>
        <time>2024-10-29T13:04:02+01:00</time>
      </trkpt>
      <trkpt lat="43.49838" lon="6.89783">
        <ele>309</ele>
        <time>2024-10-29T13:04:14+01:00</time>
      </trkpt>
      <trkpt lat="43.49829" lon="6.89792">
        <ele>306</ele>
        <time>2024-10-29T13:04:29+01:00</time>
      </trkpt>
      <trkpt lat="43.49818" lon="6.89797">
        <ele>305</ele>
        <time>2024-10-29T13:04:41+01:00</time>
      </trkpt>
      <trkpt lat="43.49809" lon="6.89801">
        <ele>304</ele>
        <time>2024-10-29T13:04:56+01:00</time>
      </trkpt>
      <trkpt lat="43.498" lon="6.89807">
        <ele>303</ele>
        <time>2024-10-29T13:05:05+01:00</time>
      </trkpt>
      <trkpt lat="43.49792" lon="6.89812">
        <ele>301</ele>
        <time>2024-10-29T13:05:14+01:00</time>
      </trkpt>
      <trkpt lat="43.49783" lon="6.89818">
        <ele>299</ele>
        <time>2024-10-29T13:05:26+01:00</time>
      </trkpt>
      <trkpt lat="43.49773" lon="6.89824">
        <ele>298</ele>
        <time>2024-10-29T13:05:44+01:00</time>
      </trkpt>
      <trkpt lat="43.49765" lon="6.89831">
        <ele>295</ele>
        <time>2024-10-29T13:05:56+01:00</time>
      </trkpt>
      <trkpt lat="43.49757" lon="6.89841">
        <ele>294</ele>
        <time>2024-10-29T13:06:11+01:00</time>
      </trkpt>
      <trkpt lat="43.4975" lon="6.89852">
        <ele>293</ele>
        <time>2024-10-29T13:06:26+01:00</time>
      </trkpt>
      <trkpt lat="43.49743" lon="6.89862">
        <ele>291</ele>
        <time>2024-10-29T13:06:38+01:00</time>
      </trkpt>
      <trkpt lat="43.49737" lon="6.89873">
        <ele>290</ele>
        <time>2024-10-29T13:06:50+01:00</time>
      </trkpt>
      <trkpt lat="43.49732" lon="6.89883">
        <ele>290</ele>
        <time>2024-10-29T13:07:02+01:00</time>
      </trkpt>
      <trkpt lat="43.49726" lon="6.89893">
        <ele>289</ele>
        <time>2024-10-29T13:07:14+01:00</time>
      </trkpt>
      <trkpt lat="43.4972" lon="6.89902">
        <ele>289</ele>
        <time>2024-10-29T13:07:23+01:00</time>
      </trkpt>
      <trkpt lat="43.49713" lon="6.89911">
        <ele>289</ele>
        <time>2024-10-29T13:07:35+01:00</time>
      </trkpt>
      <trkpt lat="43.49707" lon="6.8992">
        <ele>289</ele>
        <time>2024-10-29T13:07:47+01:00</time>
      </trkpt>
      <trkpt lat="43.49699" lon="6.89929">
        <ele>289</ele>
        <time>2024-10-29T13:07:59+01:00</time>
      </trkpt>
      <trkpt lat="43.4969" lon="6.89936">
        <ele>290</ele>
        <time>2024-10-29T13:08:14+01:00</time>
      </trkpt>
      <trkpt lat="43.49681" lon="6.89943">
        <ele>290</ele>
        <time>2024-10-29T13:09:02+01:00</time>
      </trkpt>
      <trkpt lat="43.49671" lon="6.8995">
        <ele>290</ele>
        <time>2024-10-29T13:09:17+01:00</time>
      </trkpt>
      <trkpt lat="43.49662" lon="6.89955">
        <ele>289</ele>
        <time>2024-10-29T13:09:29+01:00</time>
      </trkpt>
      <trkpt lat="43.49652" lon="6.89962">
        <ele>289</ele>
        <time>2024-10-29T13:09:41+01:00</time>
      </trkpt>
      <trkpt lat="43.49643" lon="6.89969">
        <ele>290</ele>
        <time>2024-10-29T13:09:53+01:00</time>
      </trkpt>
      <trkpt lat="43.49635" lon="6.89977">
        <ele>289</ele>
        <time>2024-10-29T13:10:08+01:00</time>
      </trkpt>
      <trkpt lat="43.49629" lon="6.89986">
        <ele>289</ele>
        <time>2024-10-29T13:10:20+01:00</time>
      </trkpt>
      <trkpt lat="43.49622" lon="6.89997">
        <ele>288</ele>
        <time>2024-10-29T13:10:32+01:00</time>
      </trkpt>
      <trkpt lat="43.49616" lon="6.90007">
        <ele>287</ele>
        <time>2024-10-29T13:10:44+01:00</time>
      </trkpt>
      <trkpt lat="43.4961" lon="6.90017">
        <ele>287</ele>
        <time>2024-10-29T13:10:56+01:00</time>
      </trkpt>
      <trkpt lat="43.49602" lon="6.90029">
        <ele>287</ele>
        <time>2024-10-29T13:11:08+01:00</time>
      </trkpt>
      <trkpt lat="43.496" lon="6.9004">
        <ele>287</ele>
        <time>2024-10-29T13:11:17+01:00</time>
      </trkpt>
      <trkpt lat="43.496" lon="6.90054">
        <ele>285</ele>
        <time>2024-10-29T13:11:29+01:00</time>
      </trkpt>
      <trkpt lat="43.49601" lon="6.90069">
        <ele>282</ele>
        <time>2024-10-29T13:11:41+01:00</time>
      </trkpt>
      <trkpt lat="43.49601" lon="6.90083">
        <ele>281</ele>
        <time>2024-10-29T13:11:53+01:00</time>
      </trkpt>
      <trkpt lat="43.496" lon="6.90097">
        <ele>280</ele>
        <time>2024-10-29T13:12:05+01:00</time>
      </trkpt>
      <trkpt lat="43.496" lon="6.9011">
        <ele>279</ele>
        <time>2024-10-29T13:12:17+01:00</time>
      </trkpt>
      <trkpt lat="43.496" lon="6.90123">
        <ele>278</ele>
        <time>2024-10-29T13:12:26+01:00</time>
      </trkpt>
      <trkpt lat="43.49602" lon="6.90135">
        <ele>277</ele>
        <time>2024-10-29T13:12:35+01:00</time>
      </trkpt>
      <trkpt lat="43.49603" lon="6.90149">
        <ele>275</ele>
        <time>2024-10-29T13:12:47+01:00</time>
      </trkpt>
      <trkpt lat="43.49604" lon="6.90163">
        <ele>274</ele>
        <time>2024-10-29T13:12:59+01:00</time>
      </trkpt>
      <trkpt lat="43.49608" lon="6.90178">
        <ele>272</ele>
        <time>2024-10-29T13:13:12+01:00</time>
      </trkpt>
      <trkpt lat="43.49613" lon="6.90188">
        <ele>269</ele>
        <time>2024-10-29T13:13:24+01:00</time>
      </trkpt>
      <trkpt lat="43.49619" lon="6.90199">
        <ele>267</ele>
        <time>2024-10-29T13:13:36+01:00</time>
      </trkpt>
      <trkpt lat="43.49624" lon="6.9021">
        <ele>265</ele>
        <time>2024-10-29T13:13:49+01:00</time>
      </trkpt>
      <trkpt lat="43.49629" lon="6.9022">
        <ele>264</ele>
        <time>2024-10-29T13:14:00+01:00</time>
      </trkpt>
      <trkpt lat="43.49632" lon="6.90232">
        <ele>263</ele>
        <time>2024-10-29T13:14:12+01:00</time>
      </trkpt>
      <trkpt lat="43.49636" lon="6.90243">
        <ele>262</ele>
        <time>2024-10-29T13:14:25+01:00</time>
      </trkpt>
      <trkpt lat="43.49637" lon="6.90255">
        <ele>262</ele>
        <time>2024-10-29T13:14:34+01:00</time>
      </trkpt>
      <trkpt lat="43.49631" lon="6.90265">
        <ele>261</ele>
        <time>2024-10-29T13:14:50+01:00</time>
      </trkpt>
      <trkpt lat="43.49623" lon="6.90271">
        <ele>260</ele>
        <time>2024-10-29T13:15:02+01:00</time>
      </trkpt>
      <trkpt lat="43.49614" lon="6.90273">
        <ele>260</ele>
        <time>2024-10-29T13:15:12+01:00</time>
      </trkpt>
      <trkpt lat="43.49604" lon="6.90273">
        <ele>260</ele>
        <time>2024-10-29T13:15:24+01:00</time>
      </trkpt>
      <trkpt lat="43.49593" lon="6.90272">
        <ele>260</ele>
        <time>2024-10-29T13:15:37+01:00</time>
      </trkpt>
      <trkpt lat="43.49582" lon="6.90273">
        <ele>259</ele>
        <time>2024-10-29T13:15:49+01:00</time>
      </trkpt>
      <trkpt lat="43.49572" lon="6.90277">
        <ele>257</ele>
        <time>2024-10-29T13:16:04+01:00</time>
      </trkpt>
      <trkpt lat="43.49563" lon="6.90282">
        <ele>255</ele>
        <time>2024-10-29T13:16:16+01:00</time>
      </trkpt>
      <trkpt lat="43.49554" lon="6.90288">
        <ele>253</ele>
        <time>2024-10-29T13:16:28+01:00</time>
      </trkpt>
      <trkpt lat="43.49545" lon="6.90294">
        <ele>251</ele>
        <time>2024-10-29T13:16:43+01:00</time>
      </trkpt>
      <trkpt lat="43.49539" lon="6.90303">
        <ele>249</ele>
        <time>2024-10-29T13:17:01+01:00</time>
      </trkpt>
      <trkpt lat="43.49534" lon="6.90312">
        <ele>248</ele>
        <time>2024-10-29T13:17:14+01:00</time>
      </trkpt>
      <trkpt lat="43.49529" lon="6.90324">
        <ele>246</ele>
        <time>2024-10-29T13:17:32+01:00</time>
      </trkpt>
      <trkpt lat="43.49524" lon="6.90337">
        <ele>244</ele>
        <time>2024-10-29T13:17:44+01:00</time>
      </trkpt>
      <trkpt lat="43.49519" lon="6.90348">
        <ele>243</ele>
        <time>2024-10-29T13:17:56+01:00</time>
      </trkpt>
      <trkpt lat="43.49511" lon="6.90358">
        <ele>242</ele>
        <time>2024-10-29T13:18:12+01:00</time>
      </trkpt>
      <trkpt lat="43.49506" lon="6.9037">
        <ele>241</ele>
        <time>2024-10-29T13:18:33+01:00</time>
      </trkpt>
      <trkpt lat="43.49502" lon="6.90381">
        <ele>240</ele>
        <time>2024-10-29T13:18:45+01:00</time>
      </trkpt>
      <trkpt lat="43.49502" lon="6.90395">
        <ele>240</ele>
        <time>2024-10-29T13:19:01+01:00</time>
      </trkpt>
      <trkpt lat="43.49502" lon="6.9041">
        <ele>240</ele>
        <time>2024-10-29T13:19:12+01:00</time>
      </trkpt>
      <trkpt lat="43.49506" lon="6.90421">
        <ele>239</ele>
        <time>2024-10-29T13:21:00+01:00</time>
      </trkpt>
      <trkpt lat="43.49507" lon="6.90434">
        <ele>238</ele>
        <time>2024-10-29T13:21:09+01:00</time>
      </trkpt>
      <trkpt lat="43.49509" lon="6.90448">
        <ele>238</ele>
        <time>2024-10-29T13:21:21+01:00</time>
      </trkpt>
      <trkpt lat="43.49509" lon="6.90462">
        <ele>238</ele>
        <time>2024-10-29T13:21:33+01:00</time>
      </trkpt>
      <trkpt lat="43.49509" lon="6.90475">
        <ele>238</ele>
        <time>2024-10-29T13:22:48+01:00</time>
      </trkpt>
      <trkpt lat="43.49507" lon="6.90489">
        <ele>240</ele>
        <time>2024-10-29T13:23:03+01:00</time>
      </trkpt>
      <trkpt lat="43.49508" lon="6.90498">
        <ele>240</ele>
        <time>2024-10-29T13:23:16+01:00</time>
      </trkpt>
      <trkpt lat="43.49507" lon="6.90487">
        <ele>240</ele>
        <time>2024-10-29T13:24:54+01:00</time>
      </trkpt>
      <trkpt lat="43.49509" lon="6.90476">
        <ele>239</ele>
        <time>2024-10-29T13:25:06+01:00</time>
      </trkpt>
      <trkpt lat="43.4951" lon="6.90464">
        <ele>238</ele>
        <time>2024-10-29T13:25:15+01:00</time>
      </trkpt>
      <trkpt lat="43.49512" lon="6.90452">
        <ele>237</ele>
        <time>2024-10-29T13:25:27+01:00</time>
      </trkpt>
      <trkpt lat="43.4951" lon="6.9044">
        <ele>238</ele>
        <time>2024-10-29T13:25:40+01:00</time>
      </trkpt>
      <trkpt lat="43.49507" lon="6.90426">
        <ele>239</ele>
        <time>2024-10-29T13:25:49+01:00</time>
      </trkpt>
      <trkpt lat="43.49505" lon="6.90412">
        <ele>239</ele>
        <time>2024-10-29T13:26:01+01:00</time>
      </trkpt>
      <trkpt lat="43.49506" lon="6.90403">
        <ele>239</ele>
        <time>2024-10-29T13:26:10+01:00</time>
      </trkpt>
      <trkpt lat="43.4951" lon="6.90411">
        <ele>238</ele>
        <time>2024-10-29T13:26:25+01:00</time>
      </trkpt>
      <trkpt lat="43.49513" lon="6.90423">
        <ele>237</ele>
        <time>2024-10-29T13:26:37+01:00</time>
      </trkpt>
      <trkpt lat="43.49517" lon="6.90435">
        <ele>236</ele>
        <time>2024-10-29T13:26:47+01:00</time>
      </trkpt>
      <trkpt lat="43.49521" lon="6.90446">
        <ele>234</ele>
        <time>2024-10-29T13:26:58+01:00</time>
      </trkpt>
      <trkpt lat="43.49523" lon="6.90459">
        <ele>233</ele>
        <time>2024-10-29T13:27:47+01:00</time>
      </trkpt>
      <trkpt lat="43.49521" lon="6.90473">
        <ele>234</ele>
        <time>2024-10-29T13:27:58+01:00</time>
      </trkpt>
      <trkpt lat="43.4952" lon="6.90486">
        <ele>234</ele>
        <time>2024-10-29T13:28:10+01:00</time>
      </trkpt>
      <trkpt lat="43.49524" lon="6.90498">
        <ele>233</ele>
        <time>2024-10-29T13:28:19+01:00</time>
      </trkpt>
      <trkpt lat="43.49528" lon="6.90509">
        <ele>231</ele>
        <time>2024-10-29T13:28:28+01:00</time>
      </trkpt>
      <trkpt lat="43.49528" lon="6.9052">
        <ele>230</ele>
        <time>2024-10-29T13:28:40+01:00</time>
      </trkpt>
      <trkpt lat="43.49526" lon="6.90533">
        <ele>231</ele>
        <time>2024-10-29T13:28:52+01:00</time>
      </trkpt>
      <trkpt lat="43.49525" lon="6.90546">
        <ele>233</ele>
        <time>2024-10-29T13:29:04+01:00</time>
      </trkpt>
      <trkpt lat="43.49528" lon="6.90558">
        <ele>232</ele>
        <time>2024-10-29T13:29:16+01:00</time>
      </trkpt>
      <trkpt lat="43.49534" lon="6.90567">
        <ele>231</ele>
        <time>2024-10-29T13:29:28+01:00</time>
      </trkpt>
      <trkpt lat="43.49543" lon="6.90572">
        <ele>228</ele>
        <time>2024-10-29T13:29:40+01:00</time>
      </trkpt>
      <trkpt lat="43.49552" lon="6.90578">
        <ele>225</ele>
        <time>2024-10-29T13:29:55+01:00</time>
      </trkpt>
      <trkpt lat="43.49561" lon="6.90581">
        <ele>224</ele>
        <time>2024-10-29T13:30:07+01:00</time>
      </trkpt>
      <trkpt lat="43.49572" lon="6.90581">
        <ele>222</ele>
        <time>2024-10-29T13:30:19+01:00</time>
      </trkpt>
      <trkpt lat="43.49582" lon="6.90582">
        <ele>221</ele>
        <time>2024-10-29T13:30:28+01:00</time>
      </trkpt>
      <trkpt lat="43.49589" lon="6.90589">
        <ele>221</ele>
        <time>2024-10-29T13:30:43+01:00</time>
      </trkpt>
      <trkpt lat="43.49596" lon="6.90598">
        <ele>221</ele>
        <time>2024-10-29T13:30:52+01:00</time>
      </trkpt>
      <trkpt lat="43.49603" lon="6.90607">
        <ele>220</ele>
        <time>2024-10-29T13:31:04+01:00</time>
      </trkpt>
      <trkpt lat="43.49609" lon="6.90618">
        <ele>221</ele>
        <time>2024-10-29T13:31:16+01:00</time>
      </trkpt>
      <trkpt lat="43.49616" lon="6.90628">
        <ele>220</ele>
        <time>2024-10-29T13:31:28+01:00</time>
      </trkpt>
      <trkpt lat="43.49625" lon="6.90634">
        <ele>218</ele>
        <time>2024-10-29T13:31:40+01:00</time>
      </trkpt>
      <trkpt lat="43.49632" lon="6.90643">
        <ele>217</ele>
        <time>2024-10-29T13:31:52+01:00</time>
      </trkpt>
      <trkpt lat="43.49642" lon="6.90652">
        <ele>216</ele>
        <time>2024-10-29T13:32:04+01:00</time>
      </trkpt>
      <trkpt lat="43.49651" lon="6.90658">
        <ele>214</ele>
        <time>2024-10-29T13:32:16+01:00</time>
      </trkpt>
      <trkpt lat="43.4966" lon="6.90665">
        <ele>212</ele>
        <time>2024-10-29T13:32:31+01:00</time>
      </trkpt>
      <trkpt lat="43.49668" lon="6.90672">
        <ele>212</ele>
        <time>2024-10-29T13:32:43+01:00</time>
      </trkpt>
      <trkpt lat="43.49675" lon="6.90682">
        <ele>212</ele>
        <time>2024-10-29T13:32:58+01:00</time>
      </trkpt>
      <trkpt lat="43.49683" lon="6.90693">
        <ele>212</ele>
        <time>2024-10-29T13:33:13+01:00</time>
      </trkpt>
      <trkpt lat="43.49692" lon="6.90703">
        <ele>210</ele>
        <time>2024-10-29T13:33:25+01:00</time>
      </trkpt>
      <trkpt lat="43.49701" lon="6.90711">
        <ele>209</ele>
        <time>2024-10-29T13:33:37+01:00</time>
      </trkpt>
      <trkpt lat="43.49709" lon="6.90721">
        <ele>208</ele>
        <time>2024-10-29T13:33:52+01:00</time>
      </trkpt>
      <trkpt lat="43.49715" lon="6.90731">
        <ele>208</ele>
        <time>2024-10-29T13:34:01+01:00</time>
      </trkpt>
      <trkpt lat="43.49721" lon="6.9074">
        <ele>206</ele>
        <time>2024-10-29T13:34:13+01:00</time>
      </trkpt>
      <trkpt lat="43.49726" lon="6.90752">
        <ele>206</ele>
        <time>2024-10-29T13:34:25+01:00</time>
      </trkpt>
      <trkpt lat="43.49733" lon="6.90762">
        <ele>205</ele>
        <time>2024-10-29T13:34:37+01:00</time>
      </trkpt>
      <trkpt lat="43.49739" lon="6.90772">
        <ele>203</ele>
        <time>2024-10-29T13:34:55+01:00</time>
      </trkpt>
      <trkpt lat="43.49744" lon="6.90783">
        <ele>203</ele>
        <time>2024-10-29T13:35:07+01:00</time>
      </trkpt>
      <trkpt lat="43.49749" lon="6.90796">
        <ele>203</ele>
        <time>2024-10-29T13:35:22+01:00</time>
      </trkpt>
      <trkpt lat="43.49755" lon="6.90808">
        <ele>201</ele>
        <time>2024-10-29T13:35:35+01:00</time>
      </trkpt>
      <trkpt lat="43.49758" lon="6.90819">
        <ele>199</ele>
        <time>2024-10-29T13:35:47+01:00</time>
      </trkpt>
      <trkpt lat="43.49759" lon="6.90831">
        <ele>199</ele>
        <time>2024-10-29T13:35:59+01:00</time>
      </trkpt>
      <trkpt lat="43.49761" lon="6.90846">
        <ele>199</ele>
        <time>2024-10-29T13:36:11+01:00</time>
      </trkpt>
      <trkpt lat="43.49765" lon="6.90858">
        <ele>198</ele>
        <time>2024-10-29T13:36:23+01:00</time>
      </trkpt>
      <trkpt lat="43.4977" lon="6.9087">
        <ele>198</ele>
        <time>2024-10-29T13:36:33+01:00</time>
      </trkpt>
      <trkpt lat="43.49777" lon="6.90882">
        <ele>196</ele>
        <time>2024-10-29T13:36:48+01:00</time>
      </trkpt>
      <trkpt lat="43.49786" lon="6.90889">
        <ele>194</ele>
        <time>2024-10-29T13:37:01+01:00</time>
      </trkpt>
      <trkpt lat="43.49795" lon="6.90893">
        <ele>193</ele>
        <time>2024-10-29T13:37:11+01:00</time>
      </trkpt>
      <trkpt lat="43.49805" lon="6.90897">
        <ele>192</ele>
        <time>2024-10-29T13:37:23+01:00</time>
      </trkpt>
      <trkpt lat="43.49814" lon="6.90905">
        <ele>191</ele>
        <time>2024-10-29T13:37:35+01:00</time>
      </trkpt>
      <trkpt lat="43.49822" lon="6.90911">
        <ele>190</ele>
        <time>2024-10-29T13:37:50+01:00</time>
      </trkpt>
      <trkpt lat="43.4983" lon="6.90921">
        <ele>189</ele>
        <time>2024-10-29T13:38:02+01:00</time>
      </trkpt>
      <trkpt lat="43.49831" lon="6.90933">
        <ele>187</ele>
        <time>2024-10-29T13:38:20+01:00</time>
      </trkpt>
      <trkpt lat="43.4983" lon="6.90945">
        <ele>185</ele>
        <time>2024-10-29T13:38:32+01:00</time>
      </trkpt>
      <trkpt lat="43.49827" lon="6.90958">
        <ele>184</ele>
        <time>2024-10-29T13:38:50+01:00</time>
      </trkpt>
      <trkpt lat="43.49825" lon="6.90971">
        <ele>182</ele>
        <time>2024-10-29T13:39:02+01:00</time>
      </trkpt>
      <trkpt lat="43.49821" lon="6.90984">
        <ele>181</ele>
        <time>2024-10-29T13:39:23+01:00</time>
      </trkpt>
      <trkpt lat="43.49817" lon="6.90996">
        <ele>180</ele>
        <time>2024-10-29T13:39:38+01:00</time>
      </trkpt>
      <trkpt lat="43.49815" lon="6.91008">
        <ele>179</ele>
        <time>2024-10-29T13:39:47+01:00</time>
      </trkpt>
      <trkpt lat="43.49813" lon="6.91021">
        <ele>178</ele>
        <time>2024-10-29T13:39:59+01:00</time>
      </trkpt>
      <trkpt lat="43.49815" lon="6.91033">
        <ele>177</ele>
        <time>2024-10-29T13:40:26+01:00</time>
      </trkpt>
      <trkpt lat="43.49822" lon="6.91044">
        <ele>175</ele>
        <time>2024-10-29T13:40:38+01:00</time>
      </trkpt>
      <trkpt lat="43.49827" lon="6.91056">
        <ele>174</ele>
        <time>2024-10-29T13:40:50+01:00</time>
      </trkpt>
      <trkpt lat="43.49827" lon="6.9107">
        <ele>175</ele>
        <time>2024-10-29T13:41:08+01:00</time>
      </trkpt>
      <trkpt lat="43.49828" lon="6.91084">
        <ele>174</ele>
        <time>2024-10-29T13:41:23+01:00</time>
      </trkpt>
      <trkpt lat="43.49836" lon="6.91092">
        <ele>174</ele>
        <time>2024-10-29T13:41:38+01:00</time>
      </trkpt>
      <trkpt lat="43.49844" lon="6.91092">
        <ele>172</ele>
        <time>2024-10-29T13:41:50+01:00</time>
      </trkpt>
      <trkpt lat="43.49854" lon="6.91092">
        <ele>171</ele>
        <time>2024-10-29T13:42:02+01:00</time>
      </trkpt>
      <trkpt lat="43.49865" lon="6.91091">
        <ele>170</ele>
        <time>2024-10-29T13:42:18+01:00</time>
      </trkpt>
      <trkpt lat="43.49875" lon="6.91089">
        <ele>169</ele>
        <time>2024-10-29T13:42:29+01:00</time>
      </trkpt>
      <trkpt lat="43.49885" lon="6.91089">
        <ele>168</ele>
        <time>2024-10-29T13:42:44+01:00</time>
      </trkpt>
      <trkpt lat="43.49896" lon="6.9109">
        <ele>167</ele>
        <time>2024-10-29T13:42:59+01:00</time>
      </trkpt>
      <trkpt lat="43.49906" lon="6.9109">
        <ele>167</ele>
        <time>2024-10-29T13:43:14+01:00</time>
      </trkpt>
      <trkpt lat="43.49915" lon="6.91086">
        <ele>165</ele>
        <time>2024-10-29T13:43:38+01:00</time>
      </trkpt>
      <trkpt lat="43.49923" lon="6.91081">
        <ele>163</ele>
        <time>2024-10-29T13:43:47+01:00</time>
      </trkpt>
      <trkpt lat="43.49931" lon="6.91074">
        <ele>160</ele>
        <time>2024-10-29T13:43:56+01:00</time>
      </trkpt>
      <trkpt lat="43.4994" lon="6.91069">
        <ele>159</ele>
        <time>2024-10-29T13:44:12+01:00</time>
      </trkpt>
      <trkpt lat="43.49949" lon="6.91062">
        <ele>158</ele>
        <time>2024-10-29T13:44:23+01:00</time>
      </trkpt>
      <trkpt lat="43.49958" lon="6.91058">
        <ele>159</ele>
        <time>2024-10-29T13:44:35+01:00</time>
      </trkpt>
      <trkpt lat="43.49965" lon="6.91047">
        <ele>157</ele>
        <time>2024-10-29T13:44:51+01:00</time>
      </trkpt>
      <trkpt lat="43.49969" lon="6.91036">
        <ele>154</ele>
        <time>2024-10-29T13:45:03+01:00</time>
      </trkpt>
      <trkpt lat="43.49975" lon="6.91026">
        <ele>152</ele>
        <time>2024-10-29T13:45:14+01:00</time>
      </trkpt>
      <trkpt lat="43.49983" lon="6.91017">
        <ele>150</ele>
        <time>2024-10-29T13:45:26+01:00</time>
      </trkpt>
      <trkpt lat="43.49989" lon="6.91006">
        <ele>148</ele>
        <time>2024-10-29T13:45:38+01:00</time>
      </trkpt>
      <trkpt lat="43.49996" lon="6.90998">
        <ele>148</ele>
        <time>2024-10-29T13:45:50+01:00</time>
      </trkpt>
      <trkpt lat="43.50003" lon="6.90988">
        <ele>146</ele>
        <time>2024-10-29T13:46:02+01:00</time>
      </trkpt>
      <trkpt lat="43.5001" lon="6.9098">
        <ele>144</ele>
        <time>2024-10-29T13:46:17+01:00</time>
      </trkpt>
      <trkpt lat="43.50019" lon="6.90976">
        <ele>144</ele>
        <time>2024-10-29T13:48:54+01:00</time>
      </trkpt>
      <trkpt lat="43.50029" lon="6.90969">
        <ele>143</ele>
        <time>2024-10-29T13:49:07+01:00</time>
      </trkpt>
      <trkpt lat="43.5004" lon="6.90968">
        <ele>141</ele>
        <time>2024-10-29T13:49:18+01:00</time>
      </trkpt>
      <trkpt lat="43.5005" lon="6.90974">
        <ele>141</ele>
        <time>2024-10-29T13:49:34+01:00</time>
      </trkpt>
      <trkpt lat="43.50057" lon="6.90982">
        <ele>141</ele>
        <time>2024-10-29T13:49:46+01:00</time>
      </trkpt>
      <trkpt lat="43.50063" lon="6.90991">
        <ele>140</ele>
        <time>2024-10-29T13:49:58+01:00</time>
      </trkpt>
      <trkpt lat="43.50062" lon="6.91005">
        <ele>141</ele>
        <time>2024-10-29T13:50:10+01:00</time>
      </trkpt>
      <trkpt lat="43.50059" lon="6.91017">
        <ele>141</ele>
        <time>2024-10-29T13:50:22+01:00</time>
      </trkpt>
      <trkpt lat="43.50055" lon="6.91028">
        <ele>142</ele>
        <time>2024-10-29T13:50:31+01:00</time>
      </trkpt>
      <trkpt lat="43.50054" lon="6.91041">
        <ele>141</ele>
        <time>2024-10-29T13:50:43+01:00</time>
      </trkpt>
      <trkpt lat="43.50052" lon="6.91052">
        <ele>140</ele>
        <time>2024-10-29T13:50:55+01:00</time>
      </trkpt>
      <trkpt lat="43.50048" lon="6.91064">
        <ele>141</ele>
        <time>2024-10-29T13:51:04+01:00</time>
      </trkpt>
      <trkpt lat="43.50044" lon="6.91076">
        <ele>142</ele>
        <time>2024-10-29T13:51:16+01:00</time>
      </trkpt>
      <trkpt lat="43.50045" lon="6.91088">
        <ele>141</ele>
        <time>2024-10-29T13:51:25+01:00</time>
      </trkpt>
      <trkpt lat="43.50051" lon="6.91097">
        <ele>140</ele>
        <time>2024-10-29T13:51:34+01:00</time>
      </trkpt>
      <trkpt lat="43.50059" lon="6.91105">
        <ele>137</ele>
        <time>2024-10-29T13:51:46+01:00</time>
      </trkpt>
      <trkpt lat="43.50067" lon="6.91115">
        <ele>134</ele>
        <time>2024-10-29T13:52:02+01:00</time>
      </trkpt>
      <trkpt lat="43.50071" lon="6.91128">
        <ele>133</ele>
        <time>2024-10-29T13:52:17+01:00</time>
      </trkpt>
      <trkpt lat="43.50075" lon="6.9114">
        <ele>132</ele>
        <time>2024-10-29T13:52:29+01:00</time>
      </trkpt>
      <trkpt lat="43.50077" lon="6.91152">
        <ele>130</ele>
        <time>2024-10-29T13:52:41+01:00</time>
      </trkpt>
      <trkpt lat="43.50078" lon="6.91166">
        <ele>130</ele>
        <time>2024-10-29T13:52:56+01:00</time>
      </trkpt>
      <trkpt lat="43.50083" lon="6.91176">
        <ele>127</ele>
        <time>2024-10-29T13:53:06+01:00</time>
      </trkpt>
      <trkpt lat="43.5009" lon="6.91184">
        <ele>125</ele>
        <time>2024-10-29T13:53:15+01:00</time>
      </trkpt>
      <trkpt lat="43.50093" lon="6.91196">
        <ele>124</ele>
        <time>2024-10-29T13:53:27+01:00</time>
      </trkpt>
      <trkpt lat="43.50089" lon="6.91208">
        <ele>123</ele>
        <time>2024-10-29T13:53:39+01:00</time>
      </trkpt>
      <trkpt lat="43.50084" lon="6.91219">
        <ele>123</ele>
        <time>2024-10-29T13:53:51+01:00</time>
      </trkpt>
      <trkpt lat="43.50079" lon="6.9123">
        <ele>125</ele>
        <time>2024-10-29T13:54:09+01:00</time>
      </trkpt>
      <trkpt lat="43.50083" lon="6.9124">
        <ele>124</ele>
        <time>2024-10-29T13:54:18+01:00</time>
      </trkpt>
      <trkpt lat="43.5009" lon="6.91248">
        <ele>123</ele>
        <time>2024-10-29T13:54:34+01:00</time>
      </trkpt>
      <trkpt lat="43.50099" lon="6.91249">
        <ele>122</ele>
        <time>2024-10-29T13:54:42+01:00</time>
      </trkpt>
      <trkpt lat="43.5011" lon="6.91247">
        <ele>121</ele>
        <time>2024-10-29T13:54:57+01:00</time>
      </trkpt>
      <trkpt lat="43.50118" lon="6.91242">
        <ele>121</ele>
        <time>2024-10-29T13:55:06+01:00</time>
      </trkpt>
      <trkpt lat="43.50123" lon="6.91231">
        <ele>121</ele>
        <time>2024-10-29T13:55:15+01:00</time>
      </trkpt>
      <trkpt lat="43.50127" lon="6.91219">
        <ele>119</ele>
        <time>2024-10-29T13:55:30+01:00</time>
      </trkpt>
      <trkpt lat="43.50133" lon="6.9121">
        <ele>118</ele>
        <time>2024-10-29T13:55:42+01:00</time>
      </trkpt>
      <trkpt lat="43.50139" lon="6.912">
        <ele>116</ele>
        <time>2024-10-29T13:55:55+01:00</time>
      </trkpt>
      <trkpt lat="43.50143" lon="6.91189">
        <ele>115</ele>
        <time>2024-10-29T13:56:10+01:00</time>
      </trkpt>
      <trkpt lat="43.50149" lon="6.9118">
        <ele>115</ele>
        <time>2024-10-29T13:56:19+01:00</time>
      </trkpt>
      <trkpt lat="43.50157" lon="6.91172">
        <ele>115</ele>
        <time>2024-10-29T13:56:31+01:00</time>
      </trkpt>
      <trkpt lat="43.50164" lon="6.91162">
        <ele>114</ele>
        <time>2024-10-29T13:56:46+01:00</time>
      </trkpt>
      <trkpt lat="43.50171" lon="6.91152">
        <ele>114</ele>
        <time>2024-10-29T13:56:58+01:00</time>
      </trkpt>
      <trkpt lat="43.50178" lon="6.91143">
        <ele>114</ele>
        <time>2024-10-29T13:57:10+01:00</time>
      </trkpt>
      <trkpt lat="43.50183" lon="6.91133">
        <ele>113</ele>
        <time>2024-10-29T13:57:22+01:00</time>
      </trkpt>
      <trkpt lat="43.50191" lon="6.91124">
        <ele>113</ele>
        <time>2024-10-29T13:57:34+01:00</time>
      </trkpt>
      <trkpt lat="43.50197" lon="6.91115">
        <ele>112</ele>
        <time>2024-10-29T13:57:46+01:00</time>
      </trkpt>
      <trkpt lat="43.50203" lon="6.91106">
        <ele>111</ele>
        <time>2024-10-29T13:57:58+01:00</time>
      </trkpt>
      <trkpt lat="43.5021" lon="6.91097">
        <ele>110</ele>
        <time>2024-10-29T13:58:07+01:00</time>
      </trkpt>
      <trkpt lat="43.50217" lon="6.91087">
        <ele>109</ele>
        <time>2024-10-29T13:58:22+01:00</time>
      </trkpt>
      <trkpt lat="43.50225" lon="6.9108">
        <ele>108</ele>
        <time>2024-10-29T13:58:37+01:00</time>
      </trkpt>
      <trkpt lat="43.50233" lon="6.91074">
        <ele>107</ele>
        <time>2024-10-29T13:58:49+01:00</time>
      </trkpt>
      <trkpt lat="43.50242" lon="6.91071">
        <ele>107</ele>
        <time>2024-10-29T13:59:01+01:00</time>
      </trkpt>
      <trkpt lat="43.50252" lon="6.91069">
        <ele>107</ele>
        <time>2024-10-29T13:59:16+01:00</time>
      </trkpt>
      <trkpt lat="43.50261" lon="6.91071">
        <ele>107</ele>
        <time>2024-10-29T13:59:43+01:00</time>
      </trkpt>
      <trkpt lat="43.50269" lon="6.91069">
        <ele>106</ele>
        <time>2024-10-29T14:00:25+01:00</time>
      </trkpt>
      <trkpt lat="43.50279" lon="6.9107">
        <ele>106</ele>
        <time>2024-10-29T14:00:37+01:00</time>
      </trkpt>
      <trkpt lat="43.50288" lon="6.91072">
        <ele>106</ele>
        <time>2024-10-29T14:00:52+01:00</time>
      </trkpt>
      <trkpt lat="43.50297" lon="6.91072">
        <ele>105</ele>
        <time>2024-10-29T14:01:04+01:00</time>
      </trkpt>
      <trkpt lat="43.50307" lon="6.91074">
        <ele>105</ele>
        <time>2024-10-29T14:01:13+01:00</time>
      </trkpt>
      <trkpt lat="43.50316" lon="6.91075">
        <ele>105</ele>
        <time>2024-10-29T14:01:25+01:00</time>
      </trkpt>
      <trkpt lat="43.50326" lon="6.91074">
        <ele>104</ele>
        <time>2024-10-29T14:01:40+01:00</time>
      </trkpt>
      <trkpt lat="43.50335" lon="6.91072">
        <ele>102</ele>
        <time>2024-10-29T14:01:52+01:00</time>
      </trkpt>
      <trkpt lat="43.50346" lon="6.91071">
        <ele>100</ele>
        <time>2024-10-29T14:02:07+01:00</time>
      </trkpt>
      <trkpt lat="43.50357" lon="6.9107">
        <ele>99</ele>
        <time>2024-10-29T14:02:16+01:00</time>
      </trkpt>
      <trkpt lat="43.50366" lon="6.91073">
        <ele>99</ele>
        <time>2024-10-29T14:02:28+01:00</time>
      </trkpt>
      <trkpt lat="43.50376" lon="6.91076">
        <ele>98</ele>
        <time>2024-10-29T14:02:40+01:00</time>
      </trkpt>
      <trkpt lat="43.50385" lon="6.91075">
        <ele>96</ele>
        <time>2024-10-29T14:02:49+01:00</time>
      </trkpt>
      <trkpt lat="43.50393" lon="6.91077">
        <ele>94</ele>
        <time>2024-10-29T14:02:58+01:00</time>
      </trkpt>
      <trkpt lat="43.50403" lon="6.91077">
        <ele>92</ele>
        <time>2024-10-29T14:03:07+01:00</time>
      </trkpt>
      <trkpt lat="43.50412" lon="6.91083">
        <ele>91</ele>
        <time>2024-10-29T14:03:19+01:00</time>
      </trkpt>
      <trkpt lat="43.50421" lon="6.91088">
        <ele>91</ele>
        <time>2024-10-29T14:03:31+01:00</time>
      </trkpt>
      <trkpt lat="43.50429" lon="6.91095">
        <ele>92</ele>
        <time>2024-10-29T14:03:46+01:00</time>
      </trkpt>
      <trkpt lat="43.50436" lon="6.91104">
        <ele>94</ele>
        <time>2024-10-29T14:04:01+01:00</time>
      </trkpt>
      <trkpt lat="43.50445" lon="6.91111">
        <ele>94</ele>
        <time>2024-10-29T14:04:10+01:00</time>
      </trkpt>
      <trkpt lat="43.50452" lon="6.91118">
        <ele>95</ele>
        <time>2024-10-29T14:04:22+01:00</time>
      </trkpt>
      <trkpt lat="43.50459" lon="6.91125">
        <ele>97</ele>
        <time>2024-10-29T14:04:34+01:00</time>
      </trkpt>
      <trkpt lat="43.50468" lon="6.91128">
        <ele>94</ele>
        <time>2024-10-29T14:04:46+01:00</time>
      </trkpt>
      <trkpt lat="43.50478" lon="6.91131">
        <ele>92</ele>
        <time>2024-10-29T14:04:58+01:00</time>
      </trkpt>
      <trkpt lat="43.50488" lon="6.91133">
        <ele>89</ele>
        <time>2024-10-29T14:05:10+01:00</time>
      </trkpt>
      <trkpt lat="43.50496" lon="6.91135">
        <ele>87</ele>
        <time>2024-10-29T14:05:22+01:00</time>
      </trkpt>
      <trkpt lat="43.50501" lon="6.91145">
        <ele>88</ele>
        <time>2024-10-29T14:05:34+01:00</time>
      </trkpt>
      <trkpt lat="43.50509" lon="6.91149">
        <ele>90</ele>
        <time>2024-10-29T14:05:50+01:00</time>
      </trkpt>
      <trkpt lat="43.50518" lon="6.91142">
        <ele>87</ele>
        <time>2024-10-29T14:06:04+01:00</time>
      </trkpt>
      <trkpt lat="43.50526" lon="6.91133">
        <ele>83</ele>
        <time>2024-10-29T14:06:16+01:00</time>
      </trkpt>
      <trkpt lat="43.50535" lon="6.91125">
        <ele>81</ele>
        <time>2024-10-29T14:06:31+01:00</time>
      </trkpt>
      <trkpt lat="43.50544" lon="6.9112">
        <ele>80</ele>
        <time>2024-10-29T14:06:46+01:00</time>
      </trkpt>
      <trkpt lat="43.50554" lon="6.9112">
        <ele>81</ele>
        <time>2024-10-29T14:07:04+01:00</time>
      </trkpt>
      <trkpt lat="43.50563" lon="6.91117">
        <ele>80</ele>
        <time>2024-10-29T14:07:16+01:00</time>
      </trkpt>
      <trkpt lat="43.50573" lon="6.91114">
        <ele>78</ele>
        <time>2024-10-29T14:07:28+01:00</time>
      </trkpt>
      <trkpt lat="43.50584" lon="6.91113">
        <ele>76</ele>
        <time>2024-10-29T14:07:43+01:00</time>
      </trkpt>
      <trkpt lat="43.50593" lon="6.91111">
        <ele>75</ele>
        <time>2024-10-29T14:07:55+01:00</time>
      </trkpt>
      <trkpt lat="43.50602" lon="6.91111">
        <ele>74</ele>
        <time>2024-10-29T14:08:10+01:00</time>
      </trkpt>
      <trkpt lat="43.50613" lon="6.9111">
        <ele>73</ele>
        <time>2024-10-29T14:08:25+01:00</time>
      </trkpt>
      <trkpt lat="43.50623" lon="6.9111">
        <ele>73</ele>
        <time>2024-10-29T14:08:37+01:00</time>
      </trkpt>
      <trkpt lat="43.50632" lon="6.9111">
        <ele>74</ele>
        <time>2024-10-29T14:08:49+01:00</time>
      </trkpt>
      <trkpt lat="43.50643" lon="6.91113">
        <ele>75</ele>
        <time>2024-10-29T14:09:01+01:00</time>
      </trkpt>
      <trkpt lat="43.50653" lon="6.91116">
        <ele>75</ele>
        <time>2024-10-29T14:09:16+01:00</time>
      </trkpt>
      <trkpt lat="43.50663" lon="6.91117">
        <ele>75</ele>
        <time>2024-10-29T14:09:31+01:00</time>
      </trkpt>
      <trkpt lat="43.50673" lon="6.91113">
        <ele>73</ele>
        <time>2024-10-29T14:09:46+01:00</time>
      </trkpt>
      <trkpt lat="43.50681" lon="6.91111">
        <ele>71</ele>
        <time>2024-10-29T14:10:01+01:00</time>
      </trkpt>
      <trkpt lat="43.5069" lon="6.91113">
        <ele>71</ele>
        <time>2024-10-29T14:10:10+01:00</time>
      </trkpt>
      <trkpt lat="43.50699" lon="6.91114">
        <ele>71</ele>
        <time>2024-10-29T14:10:19+01:00</time>
      </trkpt>
      <trkpt lat="43.50708" lon="6.91111">
        <ele>69</ele>
        <time>2024-10-29T14:10:31+01:00</time>
      </trkpt>
      <trkpt lat="43.50717" lon="6.91111">
        <ele>68</ele>
        <time>2024-10-29T14:10:43+01:00</time>
      </trkpt>
      <trkpt lat="43.50726" lon="6.91109">
        <ele>67</ele>
        <time>2024-10-29T14:10:55+01:00</time>
      </trkpt>
      <trkpt lat="43.50736" lon="6.91104">
        <ele>65</ele>
        <time>2024-10-29T14:11:07+01:00</time>
      </trkpt>
      <trkpt lat="43.50744" lon="6.91099">
        <ele>63</ele>
        <time>2024-10-29T14:11:19+01:00</time>
      </trkpt>
      <trkpt lat="43.50754" lon="6.91095">
        <ele>62</ele>
        <time>2024-10-29T14:11:43+01:00</time>
      </trkpt>
      <trkpt lat="43.50764" lon="6.91092">
        <ele>62</ele>
        <time>2024-10-29T14:12:16+01:00</time>
      </trkpt>
      <trkpt lat="43.50773" lon="6.91089">
        <ele>62</ele>
        <time>2024-10-29T14:12:28+01:00</time>
      </trkpt>
      <trkpt lat="43.50783" lon="6.91086">
        <ele>62</ele>
        <time>2024-10-29T14:12:40+01:00</time>
      </trkpt>
      <trkpt lat="43.50792" lon="6.91085">
        <ele>62</ele>
        <time>2024-10-29T14:12:52+01:00</time>
      </trkpt>
      <trkpt lat="43.50803" lon="6.91081">
        <ele>63</ele>
        <time>2024-10-29T14:13:07+01:00</time>
      </trkpt>
      <trkpt lat="43.50813" lon="6.91077">
        <ele>62</ele>
        <time>2024-10-29T14:13:19+01:00</time>
      </trkpt>
      <trkpt lat="43.50822" lon="6.91075">
        <ele>61</ele>
        <time>2024-10-29T14:13:32+01:00</time>
      </trkpt>
      <trkpt lat="43.50832" lon="6.91073">
        <ele>61</ele>
        <time>2024-10-29T14:13:45+01:00</time>
      </trkpt>
      <trkpt lat="43.50842" lon="6.91072">
        <ele>61</ele>
        <time>2024-10-29T14:13:56+01:00</time>
      </trkpt>
      <trkpt lat="43.50851" lon="6.91073">
        <ele>60</ele>
        <time>2024-10-29T14:14:15+01:00</time>
      </trkpt>
      <trkpt lat="43.5086" lon="6.91071">
        <ele>60</ele>
        <time>2024-10-29T14:14:39+01:00</time>
      </trkpt>
      <trkpt lat="43.5087" lon="6.91068">
        <ele>60</ele>
        <time>2024-10-29T14:14:51+01:00</time>
      </trkpt>
      <trkpt lat="43.5088" lon="6.91067">
        <ele>61</ele>
        <time>2024-10-29T14:15:04+01:00</time>
      </trkpt>
      <trkpt lat="43.50889" lon="6.91066">
        <ele>61</ele>
        <time>2024-10-29T14:15:22+01:00</time>
      </trkpt>
      <trkpt lat="43.50898" lon="6.91065">
        <ele>60</ele>
        <time>2024-10-29T14:15:34+01:00</time>
      </trkpt>
      <trkpt lat="43.50908" lon="6.91066">
        <ele>60</ele>
        <time>2024-10-29T14:15:46+01:00</time>
      </trkpt>
      <trkpt lat="43.50917" lon="6.91067">
        <ele>60</ele>
        <time>2024-10-29T14:15:58+01:00</time>
      </trkpt>
      <trkpt lat="43.50926" lon="6.91066">
        <ele>60</ele>
        <time>2024-10-29T14:16:11+01:00</time>
      </trkpt>
      <trkpt lat="43.50934" lon="6.91066">
        <ele>60</ele>
        <time>2024-10-29T14:16:24+01:00</time>
      </trkpt>
      <trkpt lat="43.50943" lon="6.91068">
        <ele>61</ele>
        <time>2024-10-29T14:16:35+01:00</time>
      </trkpt>
      <trkpt lat="43.50953" lon="6.91072">
        <ele>61</ele>
        <time>2024-10-29T14:16:47+01:00</time>
      </trkpt>
      <trkpt lat="43.50964" lon="6.91072">
        <ele>59</ele>
        <time>2024-10-29T14:16:59+01:00</time>
      </trkpt>
      <trkpt lat="43.50974" lon="6.91071">
        <ele>58</ele>
        <time>2024-10-29T14:17:11+01:00</time>
      </trkpt>
      <trkpt lat="43.50982" lon="6.91067">
        <ele>55</ele>
        <time>2024-10-29T14:17:23+01:00</time>
      </trkpt>
      <trkpt lat="43.50991" lon="6.91064">
        <ele>54</ele>
        <time>2024-10-29T14:17:38+01:00</time>
      </trkpt>
      <trkpt lat="43.51" lon="6.91066">
        <ele>53</ele>
        <time>2024-10-29T14:17:51+01:00</time>
      </trkpt>
      <trkpt lat="43.51008" lon="6.9106">
        <ele>54</ele>
        <time>2024-10-29T14:18:02+01:00</time>
      </trkpt>
      <trkpt lat="43.51013" lon="6.9105">
        <ele>55</ele>
        <time>2024-10-29T14:18:17+01:00</time>
      </trkpt>
      <trkpt lat="43.51016" lon="6.91037">
        <ele>54</ele>
        <time>2024-10-29T14:18:32+01:00</time>
      </trkpt>
      <trkpt lat="43.5102" lon="6.91025">
        <ele>54</ele>
        <time>2024-10-29T14:18:44+01:00</time>
      </trkpt>
      <trkpt lat="43.51023" lon="6.91013">
        <ele>53</ele>
        <time>2024-10-29T14:18:59+01:00</time>
      </trkpt>
      <trkpt lat="43.51026" lon="6.91003">
        <ele>52</ele>
        <time>2024-10-29T14:19:08+01:00</time>
      </trkpt>
      <trkpt lat="43.51034" lon="6.90995">
        <ele>52</ele>
        <time>2024-10-29T14:19:20+01:00</time>
      </trkpt>
      <trkpt lat="43.51043" lon="6.90989">
        <ele>52</ele>
        <time>2024-10-29T14:19:32+01:00</time>
      </trkpt>
      <trkpt lat="43.51051" lon="6.90983">
        <ele>52</ele>
        <time>2024-10-29T14:19:44+01:00</time>
      </trkpt>
      <trkpt lat="43.5106" lon="6.90979">
        <ele>52</ele>
        <time>2024-10-29T14:19:56+01:00</time>
      </trkpt>
      <trkpt lat="43.51069" lon="6.90976">
        <ele>52</ele>
        <time>2024-10-29T14:20:08+01:00</time>
      </trkpt>
      <trkpt lat="43.51079" lon="6.90976">
        <ele>52</ele>
        <time>2024-10-29T14:20:21+01:00</time>
      </trkpt>
      <trkpt lat="43.51088" lon="6.90976">
        <ele>52</ele>
        <time>2024-10-29T14:20:30+01:00</time>
      </trkpt>
      <trkpt lat="43.51094" lon="6.90968">
        <ele>52</ele>
        <time>2024-10-29T14:20:48+01:00</time>
      </trkpt>
      <trkpt lat="43.51099" lon="6.90958">
        <ele>52</ele>
        <time>2024-10-29T14:20:57+01:00</time>
      </trkpt>
      <trkpt lat="43.51104" lon="6.90948">
        <ele>52</ele>
        <time>2024-10-29T14:21:06+01:00</time>
      </trkpt>
      <trkpt lat="43.51111" lon="6.90939">
        <ele>51</ele>
        <time>2024-10-29T14:21:18+01:00</time>
      </trkpt>
      <trkpt lat="43.51119" lon="6.9093">
        <ele>51</ele>
        <time>2024-10-29T14:21:30+01:00</time>
      </trkpt>
      <trkpt lat="43.51127" lon="6.90922">
        <ele>51</ele>
        <time>2024-10-29T14:21:36+01:00</time>
      </trkpt>
      <trkpt lat="43.51135" lon="6.90916">
        <ele>51</ele>
        <time>2024-10-29T14:21:48+01:00</time>
      </trkpt>
      <trkpt lat="43.51144" lon="6.9091">
        <ele>51</ele>
        <time>2024-10-29T14:22:00+01:00</time>
      </trkpt>
      <trkpt lat="43.51153" lon="6.90903">
        <ele>51</ele>
        <time>2024-10-29T14:22:12+01:00</time>
      </trkpt>
      <trkpt lat="43.51162" lon="6.90898">
        <ele>51</ele>
        <time>2024-10-29T14:22:27+01:00</time>
      </trkpt>
      <trkpt lat="43.5117" lon="6.90889">
        <ele>50</ele>
        <time>2024-10-29T14:22:39+01:00</time>
      </trkpt>
      <trkpt lat="43.51178" lon="6.9088">
        <ele>49</ele>
        <time>2024-10-29T14:22:54+01:00</time>
      </trkpt>
      <trkpt lat="43.51186" lon="6.90871">
        <ele>48</ele>
        <time>2024-10-29T14:23:06+01:00</time>
      </trkpt>
      <trkpt lat="43.51196" lon="6.90867">
        <ele>48</ele>
        <time>2024-10-29T14:23:18+01:00</time>
      </trkpt>
      <trkpt lat="43.51205" lon="6.90865">
        <ele>48</ele>
        <time>2024-10-29T14:23:30+01:00</time>
      </trkpt>
      <trkpt lat="43.51214" lon="6.90862">
        <ele>47</ele>
        <time>2024-10-29T14:23:45+01:00</time>
      </trkpt>
      <trkpt lat="43.51223" lon="6.90861">
        <ele>47</ele>
        <time>2024-10-29T14:24:09+01:00</time>
      </trkpt>
      <trkpt lat="43.51232" lon="6.90861">
        <ele>47</ele>
        <time>2024-10-29T14:24:18+01:00</time>
      </trkpt>
      <trkpt lat="43.51241" lon="6.90862">
        <ele>47</ele>
        <time>2024-10-29T14:24:30+01:00</time>
      </trkpt>
      <trkpt lat="43.51249" lon="6.90853">
        <ele>46</ele>
        <time>2024-10-29T14:24:45+01:00</time>
      </trkpt>
      <trkpt lat="43.51253" lon="6.9084">
        <ele>46</ele>
        <time>2024-10-29T14:24:57+01:00</time>
      </trkpt>
      <trkpt lat="43.51257" lon="6.90827">
        <ele>45</ele>
        <time>2024-10-29T14:25:09+01:00</time>
      </trkpt>
      <trkpt lat="43.51261" lon="6.90815">
        <ele>44</ele>
        <time>2024-10-29T14:25:21+01:00</time>
      </trkpt>
      <trkpt lat="43.51265" lon="6.90803">
        <ele>43</ele>
        <time>2024-10-29T14:25:39+01:00</time>
      </trkpt>
      <trkpt lat="43.51267" lon="6.90791">
        <ele>42</ele>
        <time>2024-10-29T14:25:51+01:00</time>
      </trkpt>
      <trkpt lat="43.51274" lon="6.9078">
        <ele>40</ele>
        <time>2024-10-29T14:26:03+01:00</time>
      </trkpt>
      <trkpt lat="43.51281" lon="6.90771">
        <ele>40</ele>
        <time>2024-10-29T14:26:18+01:00</time>
      </trkpt>
      <trkpt lat="43.51291" lon="6.90763">
        <ele>39</ele>
        <time>2024-10-29T14:26:33+01:00</time>
      </trkpt>
      <trkpt lat="43.51298" lon="6.90755">
        <ele>39</ele>
        <time>2024-10-29T14:26:45+01:00</time>
      </trkpt>
      <trkpt lat="43.51305" lon="6.90746">
        <ele>38</ele>
        <time>2024-10-29T14:26:57+01:00</time>
      </trkpt>
      <trkpt lat="43.51313" lon="6.90742">
        <ele>39</ele>
        <time>2024-10-29T14:27:12+01:00</time>
      </trkpt>
      <trkpt lat="43.51322" lon="6.90744">
        <ele>38</ele>
        <time>2024-10-29T14:27:27+01:00</time>
      </trkpt>
      <trkpt lat="43.5133" lon="6.90749">
        <ele>38</ele>
        <time>2024-10-29T14:27:42+01:00</time>
      </trkpt>
      <trkpt lat="43.51341" lon="6.9075">
        <ele>38</ele>
        <time>2024-10-29T14:28:00+01:00</time>
      </trkpt>
      <trkpt lat="43.51351" lon="6.90752">
        <ele>38</ele>
        <time>2024-10-29T14:28:12+01:00</time>
      </trkpt>
      <trkpt lat="43.51361" lon="6.90754">
        <ele>38</ele>
        <time>2024-10-29T14:28:24+01:00</time>
      </trkpt>
      <trkpt lat="43.5137" lon="6.90757">
        <ele>38</ele>
        <time>2024-10-29T14:28:33+01:00</time>
      </trkpt>
      <trkpt lat="43.51379" lon="6.9076">
        <ele>38</ele>
        <time>2024-10-29T14:28:48+01:00</time>
      </trkpt>
      <trkpt lat="43.51389" lon="6.90757">
        <ele>38</ele>
        <time>2024-10-29T14:29:03+01:00</time>
      </trkpt>
      <trkpt lat="43.51398" lon="6.90753">
        <ele>38</ele>
        <time>2024-10-29T14:29:12+01:00</time>
      </trkpt>
      <trkpt lat="43.51408" lon="6.90749">
        <ele>38</ele>
        <time>2024-10-29T14:29:21+01:00</time>
      </trkpt>
      <trkpt lat="43.51418" lon="6.90745">
        <ele>38</ele>
        <time>2024-10-29T14:29:33+01:00</time>
      </trkpt>
      <trkpt lat="43.51425" lon="6.90738">
        <ele>37</ele>
        <time>2024-10-29T14:29:48+01:00</time>
      </trkpt>
      <trkpt lat="43.51433" lon="6.9073">
        <ele>36</ele>
        <time>2024-10-29T14:29:57+01:00</time>
      </trkpt>
      <trkpt lat="43.5144" lon="6.90722">
        <ele>34</ele>
        <time>2024-10-29T14:30:06+01:00</time>
      </trkpt>
      <trkpt lat="43.51448" lon="6.90713">
        <ele>34</ele>
        <time>2024-10-29T14:30:27+01:00</time>
      </trkpt>
      <trkpt lat="43.51457" lon="6.90707">
        <ele>35</ele>
        <time>2024-10-29T14:30:39+01:00</time>
      </trkpt>
      <trkpt lat="43.51466" lon="6.90701">
        <ele>35</ele>
        <time>2024-10-29T14:30:51+01:00</time>
      </trkpt>
      <trkpt lat="43.51477" lon="6.90699">
        <ele>34</ele>
        <time>2024-10-29T14:31:06+01:00</time>
      </trkpt>
      <trkpt lat="43.51488" lon="6.90695">
        <ele>33</ele>
        <time>2024-10-29T14:31:18+01:00</time>
      </trkpt>
      <trkpt lat="43.51498" lon="6.90691">
        <ele>32</ele>
        <time>2024-10-29T14:31:36+01:00</time>
      </trkpt>
      <trkpt lat="43.51508" lon="6.90686">
        <ele>32</ele>
        <time>2024-10-29T14:31:51+01:00</time>
      </trkpt>
      <trkpt lat="43.5152" lon="6.90686">
        <ele>31</ele>
        <time>2024-10-29T14:32:03+01:00</time>
      </trkpt>
      <trkpt lat="43.51529" lon="6.90687">
        <ele>30</ele>
        <time>2024-10-29T14:32:15+01:00</time>
      </trkpt>
      <trkpt lat="43.5154" lon="6.9069">
        <ele>30</ele>
        <time>2024-10-29T14:32:30+01:00</time>
      </trkpt>
      <trkpt lat="43.51551" lon="6.90694">
        <ele>30</ele>
        <time>2024-10-29T14:32:45+01:00</time>
      </trkpt>
      <trkpt lat="43.5156" lon="6.90697">
        <ele>30</ele>
        <time>2024-10-29T14:32:54+01:00</time>
      </trkpt>
      <trkpt lat="43.51568" lon="6.90703">
        <ele>31</ele>
        <time>2024-10-29T14:33:03+01:00</time>
      </trkpt>
      <trkpt lat="43.51575" lon="6.9071">
        <ele>31</ele>
        <time>2024-10-29T14:33:15+01:00</time>
      </trkpt>
      <trkpt lat="43.51583" lon="6.90716">
        <ele>31</ele>
        <time>2024-10-29T14:33:24+01:00</time>
      </trkpt>
      <trkpt lat="43.51592" lon="6.90723">
        <ele>31</ele>
        <time>2024-10-29T14:33:42+01:00</time>
      </trkpt>
      <trkpt lat="43.51601" lon="6.9073">
        <ele>31</ele>
        <time>2024-10-29T14:33:54+01:00</time>
      </trkpt>
      <trkpt lat="43.5161" lon="6.90735">
        <ele>32</ele>
        <time>2024-10-29T14:34:03+01:00</time>
      </trkpt>
      <trkpt lat="43.51619" lon="6.90741">
        <ele>32</ele>
        <time>2024-10-29T14:34:15+01:00</time>
      </trkpt>
      <trkpt lat="43.51628" lon="6.90745">
        <ele>32</ele>
        <time>2024-10-29T14:34:30+01:00</time>
      </trkpt>
      <trkpt lat="43.51637" lon="6.90751">
        <ele>31</ele>
        <time>2024-10-29T14:34:42+01:00</time>
      </trkpt>
      <trkpt lat="43.51646" lon="6.90758">
        <ele>32</ele>
        <time>2024-10-29T14:34:57+01:00</time>
      </trkpt>
      <trkpt lat="43.51654" lon="6.90766">
        <ele>33</ele>
        <time>2024-10-29T14:35:09+01:00</time>
      </trkpt>
      <trkpt lat="43.51663" lon="6.90772">
        <ele>32</ele>
        <time>2024-10-29T14:35:21+01:00</time>
      </trkpt>
      <trkpt lat="43.51671" lon="6.90774">
        <ele>33</ele>
        <time>2024-10-29T14:35:30+01:00</time>
      </trkpt>
      <trkpt lat="43.5168" lon="6.9078">
        <ele>34</ele>
        <time>2024-10-29T14:35:42+01:00</time>
      </trkpt>
      <trkpt lat="43.51688" lon="6.90789">
        <ele>34</ele>
        <time>2024-10-29T14:35:52+01:00</time>
      </trkpt>
      <trkpt lat="43.51697" lon="6.90798">
        <ele>33</ele>
        <time>2024-10-29T14:36:04+01:00</time>
      </trkpt>
      <trkpt lat="43.51705" lon="6.90807">
        <ele>33</ele>
        <time>2024-10-29T14:36:16+01:00</time>
      </trkpt>
      <trkpt lat="43.51714" lon="6.90814">
        <ele>33</ele>
        <time>2024-10-29T14:36:31+01:00</time>
      </trkpt>
      <trkpt lat="43.51724" lon="6.90813">
        <ele>34</ele>
        <time>2024-10-29T14:36:43+01:00</time>
      </trkpt>
      <trkpt lat="43.51733" lon="6.90806">
        <ele>32</ele>
        <time>2024-10-29T14:36:55+01:00</time>
      </trkpt>
      <trkpt lat="43.51741" lon="6.90795">
        <ele>33</ele>
        <time>2024-10-29T14:37:08+01:00</time>
      </trkpt>
      <trkpt lat="43.51746" lon="6.90783">
        <ele>35</ele>
        <time>2024-10-29T14:37:23+01:00</time>
      </trkpt>
      <trkpt lat="43.51753" lon="6.90772">
        <ele>38</ele>
        <time>2024-10-29T14:37:44+01:00</time>
      </trkpt>
      <trkpt lat="43.51761" lon="6.90764">
        <ele>39</ele>
        <time>2024-10-29T14:37:53+01:00</time>
      </trkpt>
      <trkpt lat="43.51769" lon="6.90759">
        <ele>35</ele>
        <time>2024-10-29T14:38:05+01:00</time>
      </trkpt>
      <trkpt lat="43.5178" lon="6.90756">
        <ele>30</ele>
        <time>2024-10-29T14:38:17+01:00</time>
      </trkpt>
      <trkpt lat="43.51789" lon="6.90756">
        <ele>27</ele>
        <time>2024-10-29T14:38:29+01:00</time>
      </trkpt>
      <trkpt lat="43.518" lon="6.9076">
        <ele>23</ele>
        <time>2024-10-29T14:38:44+01:00</time>
      </trkpt>
      <trkpt lat="43.5181" lon="6.90761">
        <ele>22</ele>
        <time>2024-10-29T14:39:02+01:00</time>
      </trkpt>
      <trkpt lat="43.51819" lon="6.90763">
        <ele>21</ele>
        <time>2024-10-29T14:39:14+01:00</time>
      </trkpt>
      <trkpt lat="43.51828" lon="6.90769">
        <ele>20</ele>
        <time>2024-10-29T14:39:26+01:00</time>
      </trkpt>
      <trkpt lat="43.51836" lon="6.90774">
        <ele>20</ele>
        <time>2024-10-29T14:39:38+01:00</time>
      </trkpt>
      <trkpt lat="43.51845" lon="6.90779">
        <ele>20</ele>
        <time>2024-10-29T14:39:50+01:00</time>
      </trkpt>
      <trkpt lat="43.51853" lon="6.90785">
        <ele>20</ele>
        <time>2024-10-29T14:40:02+01:00</time>
      </trkpt>
      <trkpt lat="43.5186" lon="6.90795">
        <ele>20</ele>
        <time>2024-10-29T14:40:14+01:00</time>
      </trkpt>
      <trkpt lat="43.51865" lon="6.90807">
        <ele>20</ele>
        <time>2024-10-29T14:40:26+01:00</time>
      </trkpt>
      <trkpt lat="43.51871" lon="6.90819">
        <ele>20</ele>
        <time>2024-10-29T14:40:38+01:00</time>
      </trkpt>
      <trkpt lat="43.51879" lon="6.90828">
        <ele>20</ele>
        <time>2024-10-29T14:40:50+01:00</time>
      </trkpt>
      <trkpt lat="43.51889" lon="6.90832">
        <ele>20</ele>
        <time>2024-10-29T14:41:02+01:00</time>
      </trkpt>
      <trkpt lat="43.51898" lon="6.90839">
        <ele>20</ele>
        <time>2024-10-29T14:41:14+01:00</time>
      </trkpt>
      <trkpt lat="43.51908" lon="6.90845">
        <ele>20</ele>
        <time>2024-10-29T14:41:26+01:00</time>
      </trkpt>
      <trkpt lat="43.51917" lon="6.9085">
        <ele>20</ele>
        <time>2024-10-29T14:41:38+01:00</time>
      </trkpt>
      <trkpt lat="43.51923" lon="6.90859">
        <ele>21</ele>
        <time>2024-10-29T14:41:50+01:00</time>
      </trkpt>
      <trkpt lat="43.5193" lon="6.90869">
        <ele>21</ele>
        <time>2024-10-29T14:42:02+01:00</time>
      </trkpt>
      <trkpt lat="43.51938" lon="6.90876">
        <ele>21</ele>
        <time>2024-10-29T14:42:14+01:00</time>
      </trkpt>
      <trkpt lat="43.51947" lon="6.90882">
        <ele>22</ele>
        <time>2024-10-29T14:42:23+01:00</time>
      </trkpt>
      <trkpt lat="43.51953" lon="6.90892">
        <ele>22</ele>
        <time>2024-10-29T14:42:32+01:00</time>
      </trkpt>
      <trkpt lat="43.5196" lon="6.90903">
        <ele>22</ele>
        <time>2024-10-29T14:42:45+01:00</time>
      </trkpt>
      <trkpt lat="43.51968" lon="6.90914">
        <ele>21</ele>
        <time>2024-10-29T14:42:57+01:00</time>
      </trkpt>
      <trkpt lat="43.51974" lon="6.90924">
        <ele>20</ele>
        <time>2024-10-29T14:43:06+01:00</time>
      </trkpt>
      <trkpt lat="43.5198" lon="6.90935">
        <ele>20</ele>
        <time>2024-10-29T14:43:15+01:00</time>
      </trkpt>
      <trkpt lat="43.51989" lon="6.9094">
        <ele>19</ele>
        <time>2024-10-29T14:43:27+01:00</time>
      </trkpt>
      <trkpt lat="43.51999" lon="6.90944">
        <ele>19</ele>
        <time>2024-10-29T14:43:39+01:00</time>
      </trkpt>
      <trkpt lat="43.52009" lon="6.90948">
        <ele>19</ele>
        <time>2024-10-29T14:43:51+01:00</time>
      </trkpt>
      <trkpt lat="43.52019" lon="6.90945">
        <ele>19</ele>
        <time>2024-10-29T14:44:15+01:00</time>
      </trkpt>
      <trkpt lat="43.5203" lon="6.90943">
        <ele>19</ele>
        <time>2024-10-29T14:44:27+01:00</time>
      </trkpt>
      <trkpt lat="43.52041" lon="6.90942">
        <ele>19</ele>
        <time>2024-10-29T14:44:39+01:00</time>
      </trkpt>
      <trkpt lat="43.52052" lon="6.90942">
        <ele>19</ele>
        <time>2024-10-29T14:44:57+01:00</time>
      </trkpt>
      <trkpt lat="43.52061" lon="6.90938">
        <ele>19</ele>
        <time>2024-10-29T14:45:06+01:00</time>
      </trkpt>
      <trkpt lat="43.5207" lon="6.90934">
        <ele>19</ele>
        <time>2024-10-29T14:45:18+01:00</time>
      </trkpt>
      <trkpt lat="43.52079" lon="6.90931">
        <ele>19</ele>
        <time>2024-10-29T14:45:27+01:00</time>
      </trkpt>
      <trkpt lat="43.52089" lon="6.90927">
        <ele>20</ele>
        <time>2024-10-29T14:45:36+01:00</time>
      </trkpt>
      <trkpt lat="43.52099" lon="6.90923">
        <ele>20</ele>
        <time>2024-10-29T14:45:45+01:00</time>
      </trkpt>
      <trkpt lat="43.52108" lon="6.90923">
        <ele>20</ele>
        <time>2024-10-29T14:45:54+01:00</time>
      </trkpt>
      <trkpt lat="43.52118" lon="6.90924">
        <ele>20</ele>
        <time>2024-10-29T14:46:06+01:00</time>
      </trkpt>
      <trkpt lat="43.52128" lon="6.90924">
        <ele>20</ele>
        <time>2024-10-29T14:46:18+01:00</time>
      </trkpt>
      <trkpt lat="43.52139" lon="6.90924">
        <ele>20</ele>
        <time>2024-10-29T14:46:30+01:00</time>
      </trkpt>
      <trkpt lat="43.52149" lon="6.90925">
        <ele>20</ele>
        <time>2024-10-29T14:46:42+01:00</time>
      </trkpt>
      <trkpt lat="43.5216" lon="6.90929">
        <ele>20</ele>
        <time>2024-10-29T14:46:54+01:00</time>
      </trkpt>
      <trkpt lat="43.52169" lon="6.90934">
        <ele>19</ele>
        <time>2024-10-29T14:47:06+01:00</time>
      </trkpt>
      <trkpt lat="43.5218" lon="6.90934">
        <ele>20</ele>
        <time>2024-10-29T14:47:18+01:00</time>
      </trkpt>
      <trkpt lat="43.52189" lon="6.90936">
        <ele>20</ele>
        <time>2024-10-29T14:47:30+01:00</time>
      </trkpt>
      <trkpt lat="43.522" lon="6.90934">
        <ele>20</ele>
        <time>2024-10-29T14:47:51+01:00</time>
      </trkpt>
      <trkpt lat="43.5221" lon="6.90934">
        <ele>20</ele>
        <time>2024-10-29T14:48:06+01:00</time>
      </trkpt>
      <trkpt lat="43.52221" lon="6.90936">
        <ele>20</ele>
        <time>2024-10-29T14:48:18+01:00</time>
      </trkpt>
      <trkpt lat="43.5223" lon="6.90935">
        <ele>19</ele>
        <time>2024-10-29T14:48:30+01:00</time>
      </trkpt>
      <trkpt lat="43.52239" lon="6.90934">
        <ele>19</ele>
        <time>2024-10-29T14:48:42+01:00</time>
      </trkpt>
      <trkpt lat="43.52248" lon="6.90932">
        <ele>18</ele>
        <time>2024-10-29T14:48:54+01:00</time>
      </trkpt>
      <trkpt lat="43.52257" lon="6.90934">
        <ele>18</ele>
        <time>2024-10-29T14:49:03+01:00</time>
      </trkpt>
      <trkpt lat="43.52266" lon="6.90932">
        <ele>18</ele>
        <time>2024-10-29T14:49:12+01:00</time>
      </trkpt>
      <trkpt lat="43.52274" lon="6.90933">
        <ele>18</ele>
        <time>2024-10-29T14:49:33+01:00</time>
      </trkpt>
      <trkpt lat="43.52283" lon="6.90935">
        <ele>17</ele>
        <time>2024-10-29T14:49:42+01:00</time>
      </trkpt>
      <trkpt lat="43.52292" lon="6.90939">
        <ele>17</ele>
        <time>2024-10-29T14:49:52+01:00</time>
      </trkpt>
      <trkpt lat="43.52301" lon="6.90944">
        <ele>17</ele>
        <time>2024-10-29T14:50:04+01:00</time>
      </trkpt>
      <trkpt lat="43.52309" lon="6.90949">
        <ele>16</ele>
        <time>2024-10-29T14:50:13+01:00</time>
      </trkpt>
      <trkpt lat="43.52317" lon="6.90956">
        <ele>16</ele>
        <time>2024-10-29T14:50:25+01:00</time>
      </trkpt>
      <trkpt lat="43.52324" lon="6.90963">
        <ele>14</ele>
        <time>2024-10-29T14:50:34+01:00</time>
      </trkpt>
      <trkpt lat="43.52333" lon="6.90971">
        <ele>13</ele>
        <time>2024-10-29T14:50:46+01:00</time>
      </trkpt>
      <trkpt lat="43.52341" lon="6.90977">
        <ele>14</ele>
        <time>2024-10-29T14:50:58+01:00</time>
      </trkpt>
      <trkpt lat="43.52348" lon="6.90985">
        <ele>13</ele>
        <time>2024-10-29T14:51:07+01:00</time>
      </trkpt>
      <trkpt lat="43.52355" lon="6.90995">
        <ele>13</ele>
        <time>2024-10-29T14:51:19+01:00</time>
      </trkpt>
      <trkpt lat="43.52361" lon="6.91004">
        <ele>13</ele>
        <time>2024-10-29T14:51:30+01:00</time>
      </trkpt>
      <trkpt lat="43.52369" lon="6.91011">
        <ele>12</ele>
        <time>2024-10-29T14:51:42+01:00</time>
      </trkpt>
      <trkpt lat="43.52375" lon="6.91023">
        <ele>12</ele>
        <time>2024-10-29T14:51:54+01:00</time>
      </trkpt>
      <trkpt lat="43.52382" lon="6.9103">
        <ele>11</ele>
        <time>2024-10-29T14:52:06+01:00</time>
      </trkpt>
      <trkpt lat="43.5239" lon="6.91037">
        <ele>12</ele>
        <time>2024-10-29T14:52:19+01:00</time>
      </trkpt>
      <trkpt lat="43.52399" lon="6.91039">
        <ele>13</ele>
        <time>2024-10-29T14:52:31+01:00</time>
      </trkpt>
      <trkpt lat="43.52408" lon="6.9104">
        <ele>14</ele>
        <time>2024-10-29T14:52:40+01:00</time>
      </trkpt>
      <trkpt lat="43.52418" lon="6.91044">
        <ele>14</ele>
        <time>2024-10-29T14:52:55+01:00</time>
      </trkpt>
      <trkpt lat="43.52425" lon="6.91053">
        <ele>15</ele>
        <time>2024-10-29T14:53:05+01:00</time>
      </trkpt>
      <trkpt lat="43.52432" lon="6.91062">
        <ele>16</ele>
        <time>2024-10-29T14:53:17+01:00</time>
      </trkpt>
      <trkpt lat="43.52438" lon="6.91073">
        <ele>16</ele>
        <time>2024-10-29T14:53:29+01:00</time>
      </trkpt>
      <trkpt lat="43.52443" lon="6.91083">
        <ele>16</ele>
        <time>2024-10-29T14:53:38+01:00</time>
      </trkpt>
      <trkpt lat="43.52449" lon="6.91093">
        <ele>16</ele>
        <time>2024-10-29T14:53:50+01:00</time>
      </trkpt>
      <trkpt lat="43.52455" lon="6.91103">
        <ele>15</ele>
        <time>2024-10-29T14:54:02+01:00</time>
      </trkpt>
      <trkpt lat="43.52461" lon="6.91115">
        <ele>15</ele>
        <time>2024-10-29T14:54:14+01:00</time>
      </trkpt>
      <trkpt lat="43.52467" lon="6.91127">
        <ele>15</ele>
        <time>2024-10-29T14:54:26+01:00</time>
      </trkpt>
      <trkpt lat="43.52469" lon="6.91139">
        <ele>15</ele>
        <time>2024-10-29T14:54:41+01:00</time>
      </trkpt>
      <trkpt lat="43.52469" lon="6.91153">
        <ele>14</ele>
        <time>2024-10-29T14:54:56+01:00</time>
      </trkpt>
      <trkpt lat="43.52474" lon="6.91165">
        <ele>13</ele>
        <time>2024-10-29T14:55:08+01:00</time>
      </trkpt>
      <trkpt lat="43.52476" lon="6.91178">
        <ele>13</ele>
        <time>2024-10-29T14:55:32+01:00</time>
      </trkpt>
    </trkseg>
  </trk>
</gpx>